Observation data for Odell on 01/11/2018      Previous  Date  Next       Current Mesonet Observations  Soil Data  Daily Summary Page  Observations in Plain Language
KOD1 110600Z 19016KT 12/07 A2955 RMK A01 T01150065  RH  071%=      5-min Rain = 0
KOD1 110601Z 19015KT 12/07 A2955 RMK A01 T01150065  RH  071%=      5-min Rain = 0
KOD1 110602Z 19016KT 12/07 A2954 RMK A01 T01150065  RH  071%=      5-min Rain = 0
KOD1 110603Z 19016KT 12/06 A2954 RMK A01 T01150064  RH  071%=      5-min Rain = 0
KOD1 110604Z 19016KT 12/06 A2954 RMK A01 T01150064  RH  071%=      5-min Rain = 0
KOD1 110605Z 19014KT 12/06 A2954 RMK A01 T01150064  RH  071%=      5-min Rain = 0
KOD1 110606Z 19014KT 11/06 A2955 RMK A01 T01140064  RH  071%=      5-min Rain = 0
KOD1 110607Z 19018KT 11/06 A2954 RMK A01 T01140063  RH  071%=      5-min Rain = 0
KOD1 110608Z 19017KT 12/06 A2954 RMK A01 T01150062  RH  070%=      5-min Rain = 0
KOD1 110609Z 19017KT 12/06 A2954 RMK A01 T01150063  RH  070%=      5-min Rain = 0
KOD1 110610Z 19016G21KT 12/06 A2954 RMK A01 T01150063  RH  070%=      5-min Rain = 0
KOD1 110611Z 19018KT 12/06 A2954 RMK A01 T01150062  RH  070%=      5-min Rain = 0
KOD1 110612Z 19016KT 12/06 A2954 RMK A01 T01150062  RH  070%=      5-min Rain = 0
KOD1 110613Z 19016KT 12/06 A2954 RMK A01 T01150062  RH  070%=      5-min Rain = 0
KOD1 110614Z 19018G24KT 12/06 A2954 RMK A01 T01150062  RH  070%=      5-min Rain = 0
KOD1 110615Z 18016KT 12/06 A2954 RMK A01 T01150062  RH  070%=      5-min Rain = 0
KOD1 110616Z 19015KT 12/06 A2954 RMK A01 T01150062  RH  070%=      5-min Rain = 0
KOD1 110617Z 19018KT 11/06 A2954 RMK A01 T01140062  RH  070%=      5-min Rain = 0
KOD1 110618Z 19016KT 11/06 A2954 RMK A01 T01140062  RH  070%=      5-min Rain = 0
KOD1 110619Z 19016KT 11/06 A2954 RMK A01 T01140062  RH  070%=      5-min Rain = 0
KOD1 110620Z 19016KT 11/06 A2953 RMK A01 T01140062  RH  070%=      5-min Rain = 0
KOD1 110621Z 19018KT 11/06 A2953 RMK A01 T01140061  RH  070%=      5-min Rain = 0
KOD1 110622Z 19017KT 12/06 A2953 RMK A01 T01150061  RH  070%=      5-min Rain = 0
KOD1 110623Z 19016KT 11/06 A2953 RMK A01 T01140061  RH  070%=      5-min Rain = 0
KOD1 110624Z 19017KT 11/06 A2953 RMK A01 T01140061  RH  070%=      5-min Rain = 0
KOD1 110625Z 19017KT 11/06 A2953 RMK A01 T01140061  RH  069%=      5-min Rain = 0
KOD1 110626Z 19015KT 11/06 A2953 RMK A01 T01140061  RH  070%=      5-min Rain = 0
KOD1 110627Z 19014KT 11/06 A2953 RMK A01 T01130061  RH  070%=      5-min Rain = 0
KOD1 110628Z 19013KT 11/06 A2953 RMK A01 T01130061  RH  070%=      5-min Rain = 0
KOD1 110629Z 19014KT 11/06 A2953 RMK A01 T01120061  RH  071%=      5-min Rain = 0
KOD1 110630Z 19015KT 11/06 A2953 RMK A01 T01110060  RH  071%=      5-min Rain = 0
KOD1 110631Z 19015KT 11/06 A2953 RMK A01 T01120060  RH  070%=      5-min Rain = 0
KOD1 110632Z 19015KT 11/06 A2953 RMK A01 T01120060  RH  070%=      5-min Rain = 0
KOD1 110633Z 19014KT 11/06 A2953 RMK A01 T01120060  RH  070%=      5-min Rain = 0
KOD1 110634Z 19015KT 11/06 A2953 RMK A01 T01110060  RH  071%=      5-min Rain = 0
KOD1 110635Z 20015KT 11/06 A2953 RMK A01 T01110060  RH  071%=      5-min Rain = 0
KOD1 110636Z 20014KT 11/06 A2954 RMK A01 T01110060  RH  071%=      5-min Rain = 0
KOD1 110637Z 20014KT 11/06 A2954 RMK A01 T01110060  RH  071%=      5-min Rain = 0
KOD1 110638Z 20014KT 11/06 A2954 RMK A01 T01110060  RH  071%=      5-min Rain = 0
KOD1 110639Z 20013KT 11/06 A2954 RMK A01 T01100060  RH  071%=      5-min Rain = 0
KOD1 110640Z 20015KT 11/06 A2954 RMK A01 T01100060  RH  071%=      5-min Rain = 0
KOD1 110641Z 20017KT 11/06 A2954 RMK A01 T01110059  RH  071%=      5-min Rain = 0
KOD1 110642Z 19018KT 11/06 A2954 RMK A01 T01120059  RH  070%=      5-min Rain = 0
KOD1 110643Z 20016KT 11/06 A2954 RMK A01 T01120059  RH  070%=      5-min Rain = 0
KOD1 110644Z 19018KT 11/06 A2953 RMK A01 T01120059  RH  070%=      5-min Rain = 0
KOD1 110645Z 19017KT 11/06 A2953 RMK A01 T01120059  RH  070%=      5-min Rain = 0
KOD1 110646Z 19017KT 11/06 A2953 RMK A01 T01120059  RH  070%=      5-min Rain = 0
KOD1 110647Z 19018KT 11/06 A2953 RMK A01 T01120059  RH  070%=      5-min Rain = 0
KOD1 110648Z 20017KT 11/06 A2953 RMK A01 T01110059  RH  070%=      5-min Rain = 0
KOD1 110649Z 19017KT 11/06 A2953 RMK A01 T01110059  RH  070%=      5-min Rain = 0
KOD1 110650Z 19017KT 11/06 A2953 RMK A01 T01110059  RH  070%=      5-min Rain = 0
KOD1 110651Z 19017KT 11/06 A2953 RMK A01 T01100059  RH  071%=      5-min Rain = 0
KOD1 110652Z 19018KT 11/06 A2953 RMK A01 T01100059  RH  071%=      5-min Rain = 0
KOD1 110653Z 19017KT 11/06 A2953 RMK A01 T01100058  RH  071%=      5-min Rain = 0
KOD1 110654Z 19016KT 11/06 A2953 RMK A01 T01090058  RH  071%=      5-min Rain = 0
KOD1 110655Z 19019KT 11/06 A2953 RMK A01 T01100058  RH  070%=      5-min Rain = 0
KOD1 110656Z 19020KT 11/06 A2953 RMK A01 T01100057  RH  070%=      5-min Rain = 0
KOD1 110657Z 19017KT 11/06 A2953 RMK A01 T01110057  RH  070%=      5-min Rain = 0
KOD1 110658Z 19021KT 11/06 A2953 RMK A01 T01110057  RH  069%=      5-min Rain = 0
KOD1 110659Z 19019KT 11/06 A2953 RMK A01 T01120057  RH  069%=      5-min Rain = 0
KOD1 110700Z 19018KT 11/06 A2953 RMK A01 T01110057  RH  069%=      5-min Rain = 0
KOD1 110701Z 19017KT 11/06 A2953 RMK A01 T01100057  RH  070%=      5-min Rain = 0
KOD1 110702Z 19017KT 11/06 A2953 RMK A01 T01100057  RH  070%=      5-min Rain = 0
KOD1 110703Z 19017KT 11/06 A2953 RMK A01 T01100057  RH  070%=      5-min Rain = 0
KOD1 110704Z 19017KT 11/06 A2953 RMK A01 T01100057  RH  070%=      5-min Rain = 0
KOD1 110705Z 19020KT 11/06 A2953 RMK A01 T01100056  RH  069%=      5-min Rain = 0
KOD1 110706Z 19017G22KT 11/06 A2953 RMK A01 T01100056  RH  069%=      5-min Rain = 0
KOD1 110707Z 19018KT 11/06 A2953 RMK A01 T01100056  RH  069%=      5-min Rain = 0
KOD1 110708Z 19017KT 11/06 A2953 RMK A01 T01100057  RH  070%=      5-min Rain = 0
KOD1 110709Z 19017KT 11/06 A2953 RMK A01 T01090057  RH  070%=      5-min Rain = 0
KOD1 110710Z 19015G20KT 11/06 A2953 RMK A01 T01090056  RH  070%=      5-min Rain = 0
KOD1 110711Z 19016KT 11/06 A2953 RMK A01 T01080056  RH  071%=      5-min Rain = 0
KOD1 110712Z 19015KT 11/06 A2953 RMK A01 T01070056  RH  071%=      5-min Rain = 0
KOD1 110713Z 19016KT 11/06 A2953 RMK A01 T01070057  RH  071%=      5-min Rain = 0
KOD1 110714Z 19015KT 11/06 A2953 RMK A01 T01060057  RH  071%=      5-min Rain = 0
KOD1 110715Z 19018KT 11/06 A2953 RMK A01 T01060056  RH  071%=      5-min Rain = 0
KOD1 110716Z 19014KT 11/06 A2953 RMK A01 T01060056  RH  071%=      5-min Rain = 0
KOD1 110717Z 19015KT 11/06 A2953 RMK A01 T01050056  RH  072%=      5-min Rain = 0
KOD1 110718Z 19016KT 10/06 A2953 RMK A01 T01040056  RH  072%=      5-min Rain = 0
KOD1 110719Z 19016KT 10/06 A2952 RMK A01 T01040056  RH  072%=      5-min Rain = 0
KOD1 110720Z 19016KT 11/06 A2952 RMK A01 T01050056  RH  072%=      5-min Rain = 0
KOD1 110721Z 19016KT 11/06 A2952 RMK A01 T01050056  RH  072%=      5-min Rain = 0
KOD1 110722Z 19016KT 11/06 A2952 RMK A01 T01050055  RH  071%=      5-min Rain = 0
KOD1 110723Z 19014KT 11/06 A2952 RMK A01 T01050055  RH  071%=      5-min Rain = 0
KOD1 110724Z 19016KT 11/06 A2952 RMK A01 T01050055  RH  071%=      5-min Rain = 0
KOD1 110725Z 19015KT 11/06 A2952 RMK A01 T01050055  RH  071%=      5-min Rain = 0
KOD1 110726Z 19017KT 11/05 A2952 RMK A01 T01050054  RH  071%=      5-min Rain = 0
KOD1 110727Z 19016KT 11/05 A2952 RMK A01 T01060054  RH  070%=      5-min Rain = 0
KOD1 110728Z 19015KT 11/05 A2952 RMK A01 T01050054  RH  071%=      5-min Rain = 0
KOD1 110729Z 19016G21KT 11/05 A2952 RMK A01 T01060054  RH  070%=      5-min Rain = 0
KOD1 110730Z 19015KT 11/05 A2952 RMK A01 T01060054  RH  070%=      5-min Rain = 0
KOD1 110731Z 19014KT 11/05 A2952 RMK A01 T01050054  RH  071%=      5-min Rain = 0
KOD1 110732Z 19016KT 11/05 A2952 RMK A01 T01050054  RH  071%=      5-min Rain = 0
KOD1 110733Z 19015KT 11/05 A2952 RMK A01 T01050054  RH  071%=      5-min Rain = 0
KOD1 110734Z 19014KT 10/05 A2952 RMK A01 T01040054  RH  071%=      5-min Rain = 0
KOD1 110735Z 19017KT 10/05 A2952 RMK A01 T01040054  RH  071%=      5-min Rain = 0
KOD1 110736Z 19014KT 10/05 A2952 RMK A01 T01040054  RH  071%=      5-min Rain = 0
KOD1 110737Z 19016KT 10/05 A2952 RMK A01 T01030054  RH  072%=      5-min Rain = 0
KOD1 110738Z 19016KT 10/05 A2952 RMK A01 T01030054  RH  072%=      5-min Rain = 0
KOD1 110739Z 20016KT 10/05 A2952 RMK A01 T01030054  RH  072%=      5-min Rain = 0
KOD1 110740Z 19016KT 10/05 A2952 RMK A01 T01030054  RH  072%=      5-min Rain = 0
KOD1 110741Z 20016KT 10/05 A2952 RMK A01 T01030054  RH  071%=      5-min Rain = 0
KOD1 110742Z 20014KT 10/05 A2952 RMK A01 T01030054  RH  071%=      5-min Rain = 0
KOD1 110743Z 19014KT 10/05 A2952 RMK A01 T01030054  RH  072%=      5-min Rain = 0
KOD1 110744Z 19015KT 10/05 A2952 RMK A01 T01030053  RH  071%=      5-min Rain = 0
KOD1 110745Z 19016KT 10/05 A2952 RMK A01 T01030053  RH  071%=      5-min Rain = 0
KOD1 110746Z 19016KT 10/05 A2952 RMK A01 T01040052  RH  070%=      5-min Rain = 0
KOD1 110747Z 19015G20KT 10/05 A2952 RMK A01 T01040052  RH  070%=      5-min Rain = 0
KOD1 110748Z 19017KT 11/05 A2952 RMK A01 T01050052  RH  070%=      5-min Rain = 0
KOD1 110749Z 20015G20KT 11/05 A2952 RMK A01 T01050052  RH  070%=      5-min Rain = 0
KOD1 110750Z 19016KT 11/05 A2952 RMK A01 T01050052  RH  070%=      5-min Rain = 0
KOD1 110751Z 19016KT 11/05 A2952 RMK A01 T01050052  RH  070%=      5-min Rain = 0
KOD1 110752Z 19016KT 11/05 A2952 RMK A01 T01050052  RH  069%=      5-min Rain = 0
KOD1 110753Z 19016KT 11/05 A2952 RMK A01 T01050052  RH  070%=      5-min Rain = 0
KOD1 110754Z 19016KT 11/05 A2952 RMK A01 T01050051  RH  069%=      5-min Rain = 0
KOD1 110755Z 19014KT 11/05 A2952 RMK A01 T01050051  RH  069%=      5-min Rain = 0
KOD1 110756Z 19017KT 11/05 A2952 RMK A01 T01050051  RH  070%=      5-min Rain = 0.01
KOD1 110757Z 20016KT 11/05 A2952 RMK A01 T01050051  RH  069%=      5-min Rain = 0
KOD1 110758Z 20015KT 10/05 A2952 RMK A01 T01040051  RH  070%=      5-min Rain = 0
KOD1 110759Z 19015KT 10/05 A2952 RMK A01 T01040051  RH  070%=      5-min Rain = 0
KOD1 110800Z 19017KT 10/05 A2952 RMK A01 T01040051  RH  070%=      5-min Rain = 0
KOD1 110801Z 19015KT 10/05 A2952 RMK A01 T01040051  RH  069%=      5-min Rain = 0
KOD1 110802Z 19016KT 10/05 A2952 RMK A01 T01040051  RH  070%=      5-min Rain = 0
KOD1 110803Z 19015KT 10/05 A2952 RMK A01 T01040051  RH  070%=      5-min Rain = 0
KOD1 110804Z 19016KT 10/05 A2952 RMK A01 T01040051  RH  070%=      5-min Rain = 0
KOD1 110805Z 19016G21KT 10/05 A2952 RMK A01 T01030051  RH  070%=      5-min Rain = 0
KOD1 110806Z 19016KT 10/05 A2952 RMK A01 T01030050  RH  070%=      5-min Rain = 0
KOD1 110807Z 19016KT 10/05 A2952 RMK A01 T01030050  RH  070%=      5-min Rain = 0
KOD1 110808Z 20016KT 10/05 A2952 RMK A01 T01030050  RH  070%=      5-min Rain = 0
KOD1 110809Z 19016KT 10/05 A2952 RMK A01 T01020050  RH  070%=      5-min Rain = 0
KOD1 110810Z 19017KT 10/05 A2952 RMK A01 T01020050  RH  070%=      5-min Rain = 0
KOD1 110811Z 19017KT 10/05 A2951 RMK A01 T01020050  RH  070%=      5-min Rain = 0
KOD1 110812Z 19016G21KT 10/05 A2952 RMK A01 T01020050  RH  070%=      5-min Rain = 0
KOD1 110813Z 19018KT 10/05 A2951 RMK A01 T01010050  RH  070%=      5-min Rain = 0
KOD1 110814Z 19017KT 10/05 A2951 RMK A01 T01020050  RH  070%=      5-min Rain = 0
KOD1 110815Z 20017KT 10/05 A2951 RMK A01 T01020050  RH  070%=      5-min Rain = 0
KOD1 110816Z 19015KT 10/05 A2951 RMK A01 T01010050  RH  070%=      5-min Rain = 0
KOD1 110817Z 19018KT 10/05 A2951 RMK A01 T01010050  RH  071%=      5-min Rain = 0
KOD1 110818Z 19017KT 10/05 A2951 RMK A01 T01010049  RH  070%=      5-min Rain = 0
KOD1 110819Z 19016KT 10/05 A2951 RMK A01 T01010049  RH  070%=      5-min Rain = 0
KOD1 110820Z 20018KT 10/05 A2951 RMK A01 T01010049  RH  070%=      5-min Rain = 0
KOD1 110821Z 20017KT 10/05 A2951 RMK A01 T01010049  RH  070%=      5-min Rain = 0
KOD1 110822Z 19016KT 10/05 A2951 RMK A01 T01010049  RH  070%=      5-min Rain = 0
KOD1 110823Z 20017KT 10/05 A2951 RMK A01 T01010048  RH  070%=      5-min Rain = 0
KOD1 110824Z 19018KT 10/05 A2951 RMK A01 T01020048  RH  069%=      5-min Rain = 0
KOD1 110825Z 19016KT 10/05 A2951 RMK A01 T01020048  RH  069%=      5-min Rain = 0
KOD1 110826Z 20015KT 10/05 A2951 RMK A01 T01010048  RH  070%=      5-min Rain = 0
KOD1 110827Z 19015KT 10/05 A2951 RMK A01 T01000048  RH  070%=      5-min Rain = 0
KOD1 110828Z 19017KT 10/05 A2951 RMK A01 T01010048  RH  070%=      5-min Rain = 0
KOD1 110829Z 19016KT 10/05 A295 RMK A01 T01010048  RH  069%=      5-min Rain = 0
KOD1 110830Z 19017KT 10/05 A295 RMK A01 T01000047  RH  070%=      5-min Rain = 0
KOD1 110831Z 19015KT 10/05 A295 RMK A01 T01000047  RH  070%=      5-min Rain = 0
KOD1 110832Z 19017KT 10/05 A295 RMK A01 T01000047  RH  070%=      5-min Rain = 0
KOD1 110833Z 19018KT 10/05 A295 RMK A01 T01010047  RH  069%=      5-min Rain = 0
KOD1 110834Z 20018KT 10/05 A295 RMK A01 T01010046  RH  069%=      5-min Rain = 0
KOD1 110835Z 19016KT 10/05 A295 RMK A01 T01020046  RH  068%=      5-min Rain = 0
KOD1 110836Z 19016KT 10/05 A295 RMK A01 T01010046  RH  069%=      5-min Rain = 0
KOD1 110837Z 20017KT 10/05 A295 RMK A01 T01010046  RH  069%=      5-min Rain = 0
KOD1 110838Z 19016KT 10/05 A295 RMK A01 T01010046  RH  069%=      5-min Rain = 0
KOD1 110839Z 19015KT 10/05 A295 RMK A01 T01010046  RH  069%=      5-min Rain = 0
KOD1 110840Z 20017KT 10/05 A2951 RMK A01 T01000046  RH  069%=      5-min Rain = 0
KOD1 110841Z 20015KT 10/05 A2951 RMK A01 T01000046  RH  069%=      5-min Rain = 0
KOD1 110842Z 20013KT 10/05 A2951 RMK A01 T01000046  RH  069%=      5-min Rain = 0
KOD1 110843Z 20016KT 10/05 A2951 RMK A01 T00990046  RH  069%=      5-min Rain = 0
KOD1 110844Z 20015KT 10/05 A2951 RMK A01 T01000045  RH  069%=      5-min Rain = 0
KOD1 110845Z 20015KT 10/05 A2951 RMK A01 T00990045  RH  069%=      5-min Rain = 0
KOD1 110846Z 20017KT 10/05 A2951 RMK A01 T01000045  RH  069%=      5-min Rain = 0
KOD1 110847Z 20015KT 10/04 A2951 RMK A01 T01000044  RH  068%=      5-min Rain = 0
KOD1 110848Z 20015KT 10/04 A2951 RMK A01 T01000044  RH  068%=      5-min Rain = 0
KOD1 110849Z 20016KT 10/04 A2951 RMK A01 T01000044  RH  068%=      5-min Rain = 0
KOD1 110850Z 20014KT 10/04 A2951 RMK A01 T01000044  RH  068%=      5-min Rain = 0
KOD1 110851Z 20014KT 10/04 A2951 RMK A01 T01000044  RH  068%=      5-min Rain = 0
KOD1 110852Z 20016KT 10/04 A2951 RMK A01 T01000043  RH  068%=      5-min Rain = 0
KOD1 110853Z 20016KT 10/04 A2951 RMK A01 T01010043  RH  067%=      5-min Rain = 0
KOD1 110854Z 21015KT 10/04 A2951 RMK A01 T01010043  RH  067%=      5-min Rain = 0
KOD1 110855Z 21014KT 10/04 A2951 RMK A01 T01000043  RH  068%=      5-min Rain = 0
KOD1 110856Z 21015KT 10/04 A2951 RMK A01 T00990043  RH  068%=      5-min Rain = 0
KOD1 110857Z 21015KT 10/04 A2951 RMK A01 T01000043  RH  068%=      5-min Rain = 0
KOD1 110858Z 21014KT 10/04 A2951 RMK A01 T00990042  RH  068%=      5-min Rain = 0
KOD1 110859Z 21014KT 10/04 A2951 RMK A01 T00980042  RH  068%=      5-min Rain = 0
KOD1 110900Z 21013KT 10/04 A2951 RMK A01 T00980042  RH  068%=      5-min Rain = 0
KOD1 110901Z 21013KT 10/04 A2951 RMK A01 T00970042  RH  069%=      5-min Rain = 0
KOD1 110902Z 21013KT 10/04 A2951 RMK A01 T00960042  RH  069%=      5-min Rain = 0
KOD1 110903Z 21013KT 10/04 A2951 RMK A01 T00950042  RH  069%=      5-min Rain = 0
KOD1 110904Z 21014KT 10/04 A2951 RMK A01 T00950042  RH  069%=      5-min Rain = 0
KOD1 110905Z 21014KT 10/04 A2951 RMK A01 T00950041  RH  069%=      5-min Rain = 0
KOD1 110906Z 21014KT 10/04 A2951 RMK A01 T00950041  RH  069%=      5-min Rain = 0
KOD1 110907Z 21013KT 10/04 A2951 RMK A01 T00950041  RH  069%=      5-min Rain = 0
KOD1 110908Z 21014KT 09/04 A2951 RMK A01 T00940040  RH  069%=      5-min Rain = 0
KOD1 110909Z 21014KT 09/04 A2951 RMK A01 T00940040  RH  069%=      5-min Rain = 0
KOD1 110910Z 21014KT 09/04 A2951 RMK A01 T00940040  RH  069%=      5-min Rain = 0
KOD1 110911Z 21013KT 10/04 A2951 RMK A01 T00950039  RH  068%=      5-min Rain = 0
KOD1 110912Z 21013KT 10/04 A2951 RMK A01 T00960039  RH  068%=      5-min Rain = 0
KOD1 110913Z 21013KT 10/04 A2951 RMK A01 T00960039  RH  067%=      5-min Rain = 0
KOD1 110914Z 21015KT 10/04 A2951 RMK A01 T00970038  RH  067%=      5-min Rain = 0
KOD1 110915Z 21015KT 10/04 A2951 RMK A01 T00980038  RH  067%=      5-min Rain = 0
KOD1 110916Z 21015KT 10/04 A2951 RMK A01 T00980038  RH  066%=      5-min Rain = 0
KOD1 110917Z 21014KT 10/04 A2951 RMK A01 T00990038  RH  066%=      5-min Rain = 0
KOD1 110918Z 21014KT 10/04 A2951 RMK A01 T00990038  RH  066%=      5-min Rain = 0
KOD1 110919Z 21015KT 10/04 A2951 RMK A01 T00990037  RH  065%=      5-min Rain = 0
KOD1 110920Z 21015KT 10/04 A2951 RMK A01 T00990037  RH  065%=      5-min Rain = 0
KOD1 110921Z 21015KT 10/04 A2951 RMK A01 T00990037  RH  065%=      5-min Rain = 0
KOD1 110922Z 22015KT 10/04 A2951 RMK A01 T00990037  RH  065%=      5-min Rain = 0
KOD1 110923Z 22015KT 10/04 A2951 RMK A01 T00990037  RH  065%=      5-min Rain = 0
KOD1 110924Z 21015KT 10/04 A2951 RMK A01 T01000036  RH  065%=      5-min Rain = 0
KOD1 110925Z 21014KT 10/04 A2951 RMK A01 T01000036  RH  065%=      5-min Rain = 0
KOD1 110926Z 21014KT 10/04 A2951 RMK A01 T01000036  RH  065%=      5-min Rain = 0
KOD1 110927Z 21015KT 10/04 A2951 RMK A01 T01000036  RH  064%=      5-min Rain = 0
KOD1 110928Z 21015KT 10/04 A2951 RMK A01 T01000036  RH  064%=      5-min Rain = 0
KOD1 110929Z 21013KT 10/04 A2951 RMK A01 T01000036  RH  064%=      5-min Rain = 0
KOD1 110930Z 21015KT 10/04 A2951 RMK A01 T00990036  RH  064%=      5-min Rain = 0
KOD1 110931Z 21014KT 10/04 A2951 RMK A01 T00990035  RH  064%=      5-min Rain = 0
KOD1 110932Z 21015KT 10/04 A2951 RMK A01 T00990035  RH  064%=      5-min Rain = 0
KOD1 110933Z 21015KT 10/04 A2951 RMK A01 T01000035  RH  064%=      5-min Rain = 0
KOD1 110934Z 21014KT 10/04 A2951 RMK A01 T00990035  RH  065%=      5-min Rain = 0
KOD1 110935Z 21014KT 10/04 A2951 RMK A01 T00980035  RH  065%=      5-min Rain = 0
KOD1 110936Z 21014KT 10/04 A2951 RMK A01 T00980035  RH  065%=      5-min Rain = 0
KOD1 110937Z 21014KT 10/04 A2951 RMK A01 T00970035  RH  065%=      5-min Rain = 0
KOD1 110938Z 21013KT 10/04 A2951 RMK A01 T00970035  RH  065%=      5-min Rain = 0
KOD1 110939Z 21014KT 10/04 A2951 RMK A01 T00960035  RH  066%=      5-min Rain = 0
KOD1 110940Z 21014KT 10/04 A2951 RMK A01 T00960035  RH  066%=      5-min Rain = 0
KOD1 110941Z 21014KT 10/03 A2951 RMK A01 T00960034  RH  066%=      5-min Rain = 0
KOD1 110942Z 21014KT 10/03 A2951 RMK A01 T00950034  RH  066%=      5-min Rain = 0
KOD1 110943Z 21014KT 10/03 A2951 RMK A01 T00950034  RH  065%=      5-min Rain = 0
KOD1 110944Z 22014KT 10/03 A2951 RMK A01 T00960034  RH  065%=      5-min Rain = 0
KOD1 110945Z 22015KT 10/03 A2951 RMK A01 T00960034  RH  065%=      5-min Rain = 0
KOD1 110946Z 22014KT 10/03 A2951 RMK A01 T00960033  RH  065%=      5-min Rain = 0
KOD1 110947Z 22014KT 10/03 A2951 RMK A01 T00960033  RH  065%=      5-min Rain = 0
KOD1 110948Z 22014KT 10/03 A2951 RMK A01 T00960033  RH  065%=      5-min Rain = 0
KOD1 110949Z 22015KT 10/03 A2951 RMK A01 T00960032  RH  065%=      5-min Rain = 0
KOD1 110950Z 22015KT 10/03 A2951 RMK A01 T00970032  RH  064%=      5-min Rain = 0
KOD1 110951Z 22015KT 10/03 A2951 RMK A01 T00970031  RH  063%=      5-min Rain = 0
KOD1 110952Z 22015KT 10/03 A2951 RMK A01 T00980031  RH  063%=      5-min Rain = 0
KOD1 110953Z 22015KT 10/03 A2951 RMK A01 T00980031  RH  063%=      5-min Rain = 0
KOD1 110954Z 22015KT 10/03 A2951 RMK A01 T00980031  RH  063%=      5-min Rain = 0
KOD1 110955Z 22015KT 10/03 A2951 RMK A01 T00970031  RH  063%=      5-min Rain = 0
KOD1 110956Z 22015KT 10/03 A2951 RMK A01 T00980030  RH  063%=      5-min Rain = 0
KOD1 110957Z 22016KT 10/03 A2951 RMK A01 T00990030  RH  062%=      5-min Rain = 0
KOD1 110958Z 22015KT 10/03 A2951 RMK A01 T01000029  RH  062%=      5-min Rain = 0
KOD1 110959Z 23014KT 10/03 A2951 RMK A01 T01000029  RH  061%=      5-min Rain = 0
KOD1 111000Z 23014KT 10/03 A2951 RMK A01 T01010029  RH  061%=      5-min Rain = 0
KOD1 111001Z 23013KT 10/03 A2951 RMK A01 T01010029  RH  061%=      5-min Rain = 0
KOD1 111002Z 23013KT 10/03 A2951 RMK A01 T01010029  RH  061%=      5-min Rain = 0
KOD1 111003Z 23013KT 10/03 A2951 RMK A01 T01010029  RH  061%=      5-min Rain = 0
KOD1 111004Z 23013KT 10/03 A2951 RMK A01 T01010028  RH  061%=      5-min Rain = 0
KOD1 111005Z 23013KT 10/03 A2951 RMK A01 T01010028  RH  061%=      5-min Rain = 0
KOD1 111006Z 23013KT 10/03 A2951 RMK A01 T01010028  RH  060%=      5-min Rain = 0
KOD1 111007Z 23013KT 10/03 A2951 RMK A01 T01020028  RH  060%=      5-min Rain = 0
KOD1 111008Z 23012KT 10/03 A2951 RMK A01 T01020028  RH  060%=      5-min Rain = 0
KOD1 111009Z 23013KT 10/03 A2951 RMK A01 T01020027  RH  060%=      5-min Rain = 0
KOD1 111010Z 23012KT 10/03 A2951 RMK A01 T01020027  RH  060%=      5-min Rain = 0
KOD1 111011Z 23012KT 10/03 A2951 RMK A01 T01020027  RH  060%=      5-min Rain = 0
KOD1 111012Z 24012KT 10/03 A2951 RMK A01 T01020027  RH  060%=      5-min Rain = 0
KOD1 111013Z 24013KT 10/03 A2951 RMK A01 T01010027  RH  060%=      5-min Rain = 0
KOD1 111014Z 24013KT 10/03 A2951 RMK A01 T01020026  RH  059%=      5-min Rain = 0
KOD1 111015Z 24012KT 10/03 A2951 RMK A01 T01030026  RH  059%=      5-min Rain = 0
KOD1 111016Z 24013KT 10/03 A2951 RMK A01 T01040026  RH  059%=      5-min Rain = 0
KOD1 111017Z 24013KT 11/03 A2951 RMK A01 T01050026  RH  058%=      5-min Rain = 0
KOD1 111018Z 24013KT 11/03 A2951 RMK A01 T01060026  RH  058%=      5-min Rain = 0
KOD1 111019Z 25012KT 11/03 A2951 RMK A01 T01070026  RH  057%=      5-min Rain = 0
KOD1 111020Z 25012KT 11/03 A2951 RMK A01 T01070026  RH  057%=      5-min Rain = 0
KOD1 111021Z 24012KT 11/03 A2951 RMK A01 T01070026  RH  057%=      5-min Rain = 0
KOD1 111022Z 24012KT 11/03 A2951 RMK A01 T01070025  RH  057%=      5-min Rain = 0
KOD1 111023Z 24012KT 11/03 A2951 RMK A01 T01070025  RH  057%=      5-min Rain = 0
KOD1 111024Z 25013KT 11/03 A2951 RMK A01 T01070025  RH  057%=      5-min Rain = 0
KOD1 111025Z 24014KT 11/03 A2951 RMK A01 T01070025  RH  057%=      5-min Rain = 0
KOD1 111026Z 24012KT 11/03 A2951 RMK A01 T01070025  RH  057%=      5-min Rain = 0
KOD1 111027Z 25013KT 11/03 A2951 RMK A01 T01060025  RH  057%=      5-min Rain = 0
KOD1 111028Z 25012KT 11/03 A2951 RMK A01 T01060025  RH  057%=      5-min Rain = 0
KOD1 111029Z 25012KT 11/03 A2951 RMK A01 T01050025  RH  058%=      5-min Rain = 0
KOD1 111030Z 25012KT 11/03 A2951 RMK A01 T01050025  RH  058%=      5-min Rain = 0
KOD1 111031Z 25012KT 11/03 A2951 RMK A01 T01050025  RH  058%=      5-min Rain = 0
KOD1 111032Z 25012KT 10/03 A2951 RMK A01 T01040025  RH  058%=      5-min Rain = 0
KOD1 111033Z 25012KT 10/03 A2951 RMK A01 T01030025  RH  058%=      5-min Rain = 0
KOD1 111034Z 25011KT 10/02 A2951 RMK A01 T01030024  RH  058%=      5-min Rain = 0
KOD1 111035Z 25012KT 10/02 A2951 RMK A01 T01030024  RH  058%=      5-min Rain = 0
KOD1 111036Z 24013KT 10/02 A2951 RMK A01 T01030024  RH  058%=      5-min Rain = 0
KOD1 111037Z 24013KT 10/02 A2951 RMK A01 T01030024  RH  058%=      5-min Rain = 0
KOD1 111038Z 24012KT 10/02 A2951 RMK A01 T01030024  RH  058%=      5-min Rain = 0
KOD1 111039Z 24013KT 10/02 A2951 RMK A01 T01030024  RH  058%=      5-min Rain = 0
KOD1 111040Z 25012KT 10/02 A2951 RMK A01 T01030024  RH  058%=      5-min Rain = 0
KOD1 111041Z 25011KT 10/02 A2951 RMK A01 T01020024  RH  058%=      5-min Rain = 0
KOD1 111042Z 25012KT 10/02 A2951 RMK A01 T01020024  RH  058%=      5-min Rain = 0
KOD1 111043Z 25011KT 10/02 A2951 RMK A01 T01010024  RH  058%=      5-min Rain = 0
KOD1 111044Z 25011KT 10/02 A2951 RMK A01 T01000024  RH  059%=      5-min Rain = 0
KOD1 111045Z 25012KT 10/02 A2951 RMK A01 T00990024  RH  059%=      5-min Rain = 0
KOD1 111046Z 25012KT 10/02 A2952 RMK A01 T00990023  RH  059%=      5-min Rain = 0
KOD1 111047Z 25012KT 10/02 A2952 RMK A01 T00990023  RH  059%=      5-min Rain = 0
KOD1 111048Z 25012KT 10/02 A2952 RMK A01 T00980023  RH  060%=      5-min Rain = 0
KOD1 111049Z 25011KT 10/02 A2952 RMK A01 T00970023  RH  060%=      5-min Rain = 0
KOD1 111050Z 26011KT 10/02 A2952 RMK A01 T00970023  RH  060%=      5-min Rain = 0
KOD1 111051Z 26012KT 10/02 A2952 RMK A01 T00960023  RH  060%=      5-min Rain = 0
KOD1 111052Z 26013KT 10/02 A2953 RMK A01 T00970022  RH  060%=      5-min Rain = 0
KOD1 111053Z 26012KT 10/02 A2953 RMK A01 T00980022  RH  059%=      5-min Rain = 0
KOD1 111054Z 26012KT 10/02 A2953 RMK A01 T00980022  RH  059%=      5-min Rain = 0
KOD1 111055Z 26012KT 10/02 A2953 RMK A01 T00990022  RH  059%=      5-min Rain = 0
KOD1 111056Z 26011KT 10/02 A2953 RMK A01 T00990022  RH  058%=      5-min Rain = 0
KOD1 111057Z 27013KT 10/02 A2954 RMK A01 T01000021  RH  058%=      5-min Rain = 0
KOD1 111058Z 27016KT 10/02 A2954 RMK A01 T01020020  RH  057%=      5-min Rain = 0
KOD1 111059Z 27017KT 11/02 A2954 RMK A01 T01050019  RH  055%=      5-min Rain = 0
KOD1 111100Z 27016G21KT 11/02 A2954 RMK A01 T01070019  RH  054%=      5-min Rain = 0
KOD1 111101Z 27014G20KT 11/02 A2954 RMK A01 T01080018  RH  054%=      5-min Rain = 0
KOD1 111102Z 28021KT 11/02 A2954 RMK A01 T01090017  RH  053%=      5-min Rain = 0
KOD1 111103Z 28016KT 11/02 A2955 RMK A01 T01100018  RH  053%=      5-min Rain = 0
KOD1 111104Z 29017G24KT 11/02 A2955 RMK A01 T01100018  RH  053%=      5-min Rain = 0
KOD1 111105Z 29018KT 11/02 A2955 RMK A01 T01090017  RH  053%=      5-min Rain = 0
KOD1 111106Z 30017G22KT 11/02 A2955 RMK A01 T01090017  RH  053%=      5-min Rain = 0
KOD1 111107Z 30020G27KT 11/02 A2956 RMK A01 T01080017  RH  053%=      5-min Rain = 0
KOD1 111108Z 30017G22KT 11/02 A2956 RMK A01 T01070017  RH  054%=      5-min Rain = 0
KOD1 111109Z 31024G34KT 11/02 A2956 RMK A01 T01050017  RH  054%=      5-min Rain = 0
KOD1 111110Z 31027G32KT 10/02 A2956 RMK A01 T01030017  RH  055%=      5-min Rain = 0
KOD1 111111Z 31025G32KT 10/02 A2957 RMK A01 T01000017  RH  056%=      5-min Rain = 0
KOD1 111112Z 31028G35KT 10/02 A2957 RMK A01 T00970018  RH  058%=      5-min Rain = 0
KOD1 111113Z 32030G40KT 10/02 A2957 RMK A01 T00950018  RH  059%=      5-min Rain = 0
KOD1 111114Z 32025G37KT 09/02 A2957 RMK A01 T00920019  RH  060%=      5-min Rain = 0
KOD1 111115Z 32026G36KT 09/02 A2957 RMK A01 T00900019  RH  061%=      5-min Rain = 0
KOD1 111116Z 33030G35KT 09/02 A2958 RMK A01 T00880019  RH  062%=      5-min Rain = 0
KOD1 111117Z 32027G34KT 09/02 A2958 RMK A01 T00860019  RH  063%=      5-min Rain = 0
KOD1 111118Z 32027G34KT 08/02 A2958 RMK A01 T00840019  RH  064%=      5-min Rain = 0
KOD1 111119Z 33029G34KT 08/02 A2958 RMK A01 T00830019  RH  064%=      5-min Rain = 0
KOD1 111120Z 33031G37KT 08/02 A2958 RMK A01 T00820019  RH  065%=      5-min Rain = 0
KOD1 111121Z 33025G31KT 08/02 A2958 RMK A01 T00810020  RH  065%=      5-min Rain = 0
KOD1 111122Z 33025KT 08/02 A2958 RMK A01 T00800020  RH  066%=      5-min Rain = 0
KOD1 111123Z 33026G32KT 08/02 A2959 RMK A01 T00790020  RH  066%=      5-min Rain = 0
KOD1 111124Z 33028KT 08/02 A2959 RMK A01 T00780019  RH  066%=      5-min Rain = 0
KOD1 111125Z 33023G30KT 08/02 A2959 RMK A01 T00770019  RH  067%=      5-min Rain = 0
KOD1 111126Z 33028G35KT 08/02 A2959 RMK A01 T00760019  RH  067%=      5-min Rain = 0
KOD1 111127Z 33028G35KT 08/02 A2959 RMK A01 T00760018  RH  067%=      5-min Rain = 0
KOD1 111128Z 33030G35KT 08/02 A2959 RMK A01 T00750018  RH  067%=      5-min Rain = 0
KOD1 111129Z 33030G39KT 07/02 A2959 RMK A01 T00740017  RH  067%=      5-min Rain = 0
KOD1 111130Z 33031G37KT 07/02 A296 RMK A01 T00730017  RH  068%=      5-min Rain = 0
KOD1 111131Z 33032G39KT 07/02 A296 RMK A01 T00720017  RH  068%=      5-min Rain = 0
KOD1 111132Z 33035G42KT 07/02 A296 RMK A01 T00720016  RH  068%=      5-min Rain = 0
KOD1 111133Z 34028G34KT 07/02 A296 RMK A01 T00710016  RH  068%=      5-min Rain = 0
KOD1 111134Z 33021G26KT 07/02 A2961 RMK A01 T00700016  RH  068%=      5-min Rain = 0
KOD1 111135Z 33031G37KT 07/02 A2961 RMK A01 T00690016  RH  069%=      5-min Rain = 0
KOD1 111136Z 33025G32KT 07/02 A2961 RMK A01 T00690015  RH  069%=      5-min Rain = 0
KOD1 111137Z 33025G33KT 07/02 A2961 RMK A01 T00680015  RH  069%=      5-min Rain = 0
KOD1 111138Z 33029G34KT 07/02 A2962 RMK A01 T00680015  RH  069%=      5-min Rain = 0
KOD1 111139Z 33025G35KT 07/02 A2962 RMK A01 T00680015  RH  069%=      5-min Rain = 0
KOD1 111140Z 33024G33KT 07/02 A2962 RMK A01 T00670015  RH  069%=      5-min Rain = 0
KOD1 111141Z 33029G36KT 07/01 A2962 RMK A01 T00660013  RH  069%=      5-min Rain = 0
KOD1 111142Z 33029KT 07/01 A2962 RMK A01 T00650011  RH  068%=      5-min Rain = 0
KOD1 111143Z 33030G35KT 06/01 A2963 RMK A01 T00640009  RH  068%=      5-min Rain = 0
KOD1 111144Z 33024G29KT 06/01 A2963 RMK A01 T00620008  RH  068%=      5-min Rain = 0
KOD1 111145Z 33026G31KT 06/01 A2963 RMK A01 T00610007  RH  068%=      5-min Rain = 0
KOD1 111146Z 34028G36KT 06/01 A2964 RMK A01 T00600006  RH  068%=      5-min Rain = 0
KOD1 111147Z 34026G31KT 06/01 A2964 RMK A01 T00590006  RH  069%=      5-min Rain = 0
KOD1 111148Z 33022G31KT 06/01 A2964 RMK A01 T00580006  RH  069%=      5-min Rain = 0
KOD1 111149Z 33023G29KT 06/01 A2964 RMK A01 T00570005  RH  069%=      5-min Rain = 0
KOD1 111150Z 33024G31KT 06/00 A2964 RMK A01 T00560004  RH  069%=      5-min Rain = 0
KOD1 111151Z 33027G32KT 06/00 A2964 RMK A01 T00550003  RH  069%=      5-min Rain = 0
KOD1 111152Z 33031G39KT 05/00 A2964 RMK A01 T00540002  RH  069%=      5-min Rain = 0
KOD1 111153Z 34032G41KT 05/00 A2964 RMK A01 T005200-0  RH  069%=      5-min Rain = 0
KOD1 111154Z 34025G34KT 05/M00 A2965 RMK A01 T00511002  RH  069%=      5-min Rain = 0
KOD1 111155Z 34036G43KT 05/M00 A2965 RMK A01 T00501003  RH  068%=      5-min Rain = 0
KOD1 111156Z 34034G39KT 05/M00 A2965 RMK A01 T00491004  RH  068%=      5-min Rain = 0
KOD1 111157Z 34024G31KT 05/M00 A2965 RMK A01 T00481004  RH  069%=      5-min Rain = 0
KOD1 111158Z 34024G30KT 05/M01 A2965 RMK A01 T00471005  RH  069%=      5-min Rain = 0
KOD1 111159Z 34028G34KT 05/M01 A2965 RMK A01 T00461005  RH  069%=      5-min Rain = 0
KOD1 111200Z 34024G29KT 05/M01 A2966 RMK A01 T00451006  RH  069%=      5-min Rain = 0
KOD1 111201Z 34025G33KT 05/M01 A2966 RMK A01 T00451006  RH  069%=      5-min Rain = 0
KOD1 111202Z 34029G36KT 04/M01 A2966 RMK A01 T00441008  RH  069%=      5-min Rain = 0
KOD1 111203Z 34029G36KT 04/M01 A2966 RMK A01 T00431009  RH  069%=      5-min Rain = 0
KOD1 111204Z 34029G34KT 04/M01 A2966 RMK A01 T00431009  RH  069%=      5-min Rain = 0
KOD1 111205Z 34030G36KT 04/M01 A2966 RMK A01 T00431010  RH  069%=      5-min Rain = 0
KOD1 111206Z 34032G38KT 04/M01 A2966 RMK A01 T00421010  RH  069%=      5-min Rain = 0
KOD1 111207Z 34032G38KT 04/M01 A2967 RMK A01 T00421011  RH  068%=      5-min Rain = 0
KOD1 111208Z 35027G36KT 04/M01 A2967 RMK A01 T00421011  RH  068%=      5-min Rain = 0
KOD1 111209Z 34027G32KT 04/M01 A2967 RMK A01 T00421011  RH  068%=      5-min Rain = 0
KOD1 111210Z 34024G30KT 04/M01 A2967 RMK A01 T00411011  RH  069%=      5-min Rain = 0
KOD1 111211Z 34026G31KT 04/M01 A2967 RMK A01 T00411011  RH  069%=      5-min Rain = 0
KOD1 111212Z 34024G30KT 04/M01 A2967 RMK A01 T00401012  RH  069%=      5-min Rain = 0
KOD1 111213Z 34025G32KT 04/M01 A2967 RMK A01 T00401013  RH  069%=      5-min Rain = 0
KOD1 111214Z 34025G33KT 04/M01 A2967 RMK A01 T00391014  RH  068%=      5-min Rain = 0
KOD1 111215Z 34030G37KT 04/M02 A2967 RMK A01 T00391015  RH  068%=      5-min Rain = 0
KOD1 111216Z 34030G38KT 04/M02 A2967 RMK A01 T00381016  RH  068%=      5-min Rain = 0
KOD1 111217Z 34025G31KT 04/M02 A2967 RMK A01 T00381016  RH  068%=      5-min Rain = 0
KOD1 111218Z 34024G32KT 04/M02 A2968 RMK A01 T00381016  RH  068%=      5-min Rain = 0
KOD1 111219Z 34027G32KT 04/M02 A2968 RMK A01 T00381017  RH  068%=      5-min Rain = 0
KOD1 111220Z 34029G35KT 04/M02 A2968 RMK A01 T00381017  RH  067%=      5-min Rain = 0
KOD1 111221Z 34026G35KT 04/M02 A2968 RMK A01 T00381017  RH  067%=      5-min Rain = 0
KOD1 111222Z 34027G38KT 04/M02 A2968 RMK A01 T00381017  RH  067%=      5-min Rain = 0
KOD1 111223Z 34034G39KT 04/M02 A2968 RMK A01 T00381018  RH  067%=      5-min Rain = 0
KOD1 111224Z 34031G39KT 04/M02 A2968 RMK A01 T00381018  RH  067%=      5-min Rain = 0
KOD1 111225Z 35034G39KT 04/M02 A2968 RMK A01 T00381018  RH  067%=      5-min Rain = 0
KOD1 111226Z 34031G41KT 04/M02 A2968 RMK A01 T00381018  RH  067%=      5-min Rain = 0
KOD1 111227Z 34027G32KT 04/M02 A2968 RMK A01 T00381018  RH  067%=      5-min Rain = 0
KOD1 111228Z 35027G32KT 04/M02 A2969 RMK A01 T00381018  RH  067%=      5-min Rain = 0
KOD1 111229Z 34025G31KT 04/M02 A2969 RMK A01 T00381018  RH  067%=      5-min Rain = 0
KOD1 111230Z 35031G43KT 04/M02 A2969 RMK A01 T00381019  RH  066%=      5-min Rain = 0
KOD1 111231Z 35029G35KT 04/M02 A2969 RMK A01 T00381020  RH  066%=      5-min Rain = 0
KOD1 111232Z 35032KT 04/M02 A2969 RMK A01 T00381020  RH  066%=      5-min Rain = 0
KOD1 111233Z 35030G37KT 04/M02 A2969 RMK A01 T00381021  RH  066%=      5-min Rain = 0
KOD1 111234Z 35027G33KT 04/M02 A297 RMK A01 T00371021  RH  066%=      5-min Rain = 0
KOD1 111235Z 34028G34KT 04/M02 A297 RMK A01 T00371021  RH  066%=      5-min Rain = 0
KOD1 111236Z 35031G38KT 04/M02 A297 RMK A01 T00371021  RH  066%=      5-min Rain = 0
KOD1 111237Z 34032G39KT 04/M02 A297 RMK A01 T00371021  RH  066%=      5-min Rain = 0
KOD1 111238Z 34030G35KT 04/M02 A297 RMK A01 T00371022  RH  065%=      5-min Rain = 0
KOD1 111239Z 35027G38KT 04/M02 A297 RMK A01 T00371022  RH  066%=      5-min Rain = 0
KOD1 111240Z 35029G35KT 04/M02 A297 RMK A01 T00371022  RH  065%=      5-min Rain = 0
KOD1 111241Z 35025G33KT 04/M02 A297 RMK A01 T00371022  RH  065%=      5-min Rain = 0
KOD1 111242Z 35027G32KT 04/M02 A297 RMK A01 T00371023  RH  065%=      5-min Rain = 0
KOD1 111243Z 35025G32KT 04/M02 A297 RMK A01 T00361022  RH  065%=      5-min Rain = 0
KOD1 111244Z 35028G35KT 04/M02 A297 RMK A01 T00361023  RH  065%=      5-min Rain = 0
KOD1 111245Z 35027KT 04/M02 A297 RMK A01 T00361024  RH  065%=      5-min Rain = 0
KOD1 111246Z 34030G37KT 04/M02 A2971 RMK A01 T00361024  RH  065%=      5-min Rain = 0
KOD1 111247Z 34028G34KT 04/M03 A2971 RMK A01 T00361025  RH  065%=      5-min Rain = 0
KOD1 111248Z 35028G35KT 04/M03 A2971 RMK A01 T00351025  RH  065%=      5-min Rain = 0
KOD1 111249Z 35029G36KT 04/M03 A2971 RMK A01 T00351025  RH  065%=      5-min Rain = 0
KOD1 111250Z 34026G34KT 04/M02 A2971 RMK A01 T00351024  RH  065%=      5-min Rain = 0
KOD1 111251Z 35033G39KT 04/M02 A2971 RMK A01 T00351024  RH  065%=      5-min Rain = 0
KOD1 111252Z 34031G37KT 04/M02 A2972 RMK A01 T00351024  RH  065%=      5-min Rain = 0
KOD1 111253Z 34032KT 04/M02 A2972 RMK A01 T00351024  RH  065%=      5-min Rain = 0
KOD1 111254Z 34028G34KT 04/M02 A2972 RMK A01 T00351024  RH  065%=      5-min Rain = 0
KOD1 111255Z 35030G35KT 04/M03 A2972 RMK A01 T00351025  RH  065%=      5-min Rain = 0
KOD1 111256Z 34030G37KT 04/M03 A2972 RMK A01 T00351025  RH  065%=      5-min Rain = 0
KOD1 111257Z 34023G31KT 03/M03 A2972 RMK A01 T00341025  RH  065%=      5-min Rain = 0
KOD1 111258Z 34026G35KT 03/M03 A2972 RMK A01 T00341025  RH  065%=      5-min Rain = 0
KOD1 111259Z 34029KT 03/M03 A2972 RMK A01 T00341025  RH  065%=      5-min Rain = 0
KOD1 111300Z 35023G29KT 03/M03 A2973 RMK A01 T00341025  RH  065%=      5-min Rain = 0
KOD1 111301Z 34024G30KT 03/M03 A2973 RMK A01 T00341025  RH  066%=      5-min Rain = 0
KOD1 111302Z 34027G35KT 03/M03 A2973 RMK A01 T00341025  RH  065%=      5-min Rain = 0
KOD1 111303Z 34029G36KT 03/M03 A2973 RMK A01 T00341025  RH  065%=      5-min Rain = 0
KOD1 111304Z 34029G36KT 03/M03 A2973 RMK A01 T00341025  RH  065%=      5-min Rain = 0
KOD1 111305Z 34029G34KT 03/M03 A2973 RMK A01 T00341025  RH  065%=      5-min Rain = 0
KOD1 111306Z 34027G34KT 03/M03 A2974 RMK A01 T00331025  RH  065%=      5-min Rain = 0
KOD1 111307Z 34028G35KT 03/M03 A2974 RMK A01 T00331025  RH  065%=      5-min Rain = 0
KOD1 111308Z 35026G34KT 03/M03 A2974 RMK A01 T00331025  RH  066%=      5-min Rain = 0
KOD1 111309Z 34023G30KT 03/M03 A2974 RMK A01 T00331025  RH  065%=      5-min Rain = 0
KOD1 111310Z 34027G34KT 03/M03 A2974 RMK A01 T00331027  RH  065%=      5-min Rain = 0
KOD1 111311Z 34025KT 03/M03 A2975 RMK A01 T00321027  RH  065%=      5-min Rain = 0
KOD1 111312Z 35029G34KT 03/M03 A2975 RMK A01 T00321028  RH  065%=      5-min Rain = 0
KOD1 111313Z 34021G28KT 03/M03 A2975 RMK A01 T00321027  RH  065%=      5-min Rain = 0
KOD1 111314Z 34024G31KT 03/M03 A2975 RMK A01 T00321028  RH  065%=      5-min Rain = 0
KOD1 111315Z 34026G31KT 03/M03 A2975 RMK A01 T00321028  RH  065%=      5-min Rain = 0
KOD1 111316Z 35025KT 03/M03 A2976 RMK A01 T00311028  RH  065%=      5-min Rain = 0
KOD1 111317Z 34024KT 03/M03 A2976 RMK A01 T00311028  RH  065%=      5-min Rain = 0
KOD1 111318Z 34023KT 03/M03 A2976 RMK A01 T00311029  RH  065%=      5-min Rain = 0
KOD1 111319Z 34019G24KT 03/M03 A2976 RMK A01 T00301029  RH  065%=      5-min Rain = 0
KOD1 111320Z 35021G27KT 03/M03 A2977 RMK A01 T00301031  RH  064%=      5-min Rain = 0
KOD1 111321Z 34018G24KT 03/M03 A2977 RMK A01 T00291031  RH  064%=      5-min Rain = 0
KOD1 111322Z 34024KT 03/M03 A2977 RMK A01 T00291033  RH  064%=      5-min Rain = 0
KOD1 111323Z 34030G35KT 03/M03 A2977 RMK A01 T00281034  RH  064%=      5-min Rain = 0
KOD1 111324Z 34026G31KT 03/M03 A2977 RMK A01 T00271034  RH  064%=      5-min Rain = 0
KOD1 111325Z 34024KT 03/M03 A2978 RMK A01 T00271034  RH  064%=      5-min Rain = 0
KOD1 111326Z 34027G33KT 03/M03 A2978 RMK A01 T00271034  RH  064%=      5-min Rain = 0
KOD1 111327Z 34023KT 03/M03 A2978 RMK A01 T00261033  RH  065%=      5-min Rain = 0
KOD1 111328Z 34020G26KT 03/M03 A2978 RMK A01 T00261033  RH  065%=      5-min Rain = 0
KOD1 111329Z 34022KT 03/M03 A2978 RMK A01 T00261033  RH  065%=      5-min Rain = 0
KOD1 111330Z 34025G32KT 03/M03 A2978 RMK A01 T00261033  RH  065%=      5-min Rain = 0
KOD1 111331Z 34023G29KT 03/M03 A2978 RMK A01 T00261033  RH  065%=      5-min Rain = 0
KOD1 111332Z 35026KT 03/M03 A2978 RMK A01 T00251033  RH  066%=      5-min Rain = 0
KOD1 111333Z 35026KT 03/M03 A2979 RMK A01 T00251033  RH  066%=      5-min Rain = 0
KOD1 111334Z 34024G29KT 03/M03 A2979 RMK A01 T00251033  RH  066%=      5-min Rain = 0
KOD1 111335Z 34021G26KT 02/M03 A2979 RMK A01 T00241033  RH  066%=      5-min Rain = 0
KOD1 111336Z 34027G33KT 02/M03 A2979 RMK A01 T00241034  RH  066%=      5-min Rain = 0
KOD1 111337Z 35025G32KT 02/M03 A2979 RMK A01 T00241034  RH  066%=      5-min Rain = 0
KOD1 111338Z 34022G29KT 02/M04 A2979 RMK A01 T00231035  RH  065%=      5-min Rain = 0
KOD1 111339Z 34025G31KT 02/M04 A298 RMK A01 T00231036  RH  065%=      5-min Rain = 0
KOD1 111340Z 34025KT 02/M04 A298 RMK A01 T00221036  RH  065%=      5-min Rain = 0
KOD1 111341Z 35027G32KT 02/M04 A298 RMK A01 T00211037  RH  065%=      5-min Rain = 0
KOD1 111342Z 34029KT 02/M04 A298 RMK A01 T00211038  RH  065%=      5-min Rain = 0
KOD1 111343Z 34031G38KT 02/M04 A298 RMK A01 T00201039  RH  065%=      5-min Rain = 0
KOD1 111344Z 34034G42KT 02/M04 A2981 RMK A01 T00201039  RH  065%=      5-min Rain = 0
KOD1 111345Z 34030G35KT 02/M04 A2981 RMK A01 T00201039  RH  065%=      5-min Rain = 0
KOD1 111346Z 35026G32KT 02/M04 A2981 RMK A01 T00191039  RH  065%=      5-min Rain = 0
KOD1 111347Z 35026G31KT 02/M04 A2982 RMK A01 T00191039  RH  065%=      5-min Rain = 0
KOD1 111348Z 35021G28KT 02/M04 A2982 RMK A01 T00191039  RH  065%=      5-min Rain = 0
KOD1 111349Z 35026G34KT 02/M04 A2982 RMK A01 T00191040  RH  065%=      5-min Rain = 0
KOD1 111350Z 35022G28KT 02/M04 A2983 RMK A01 T00191040  RH  065%=      5-min Rain = 0
KOD1 111351Z 35019KT 02/M04 A2983 RMK A01 T00191039  RH  065%=      5-min Rain = 0
KOD1 111352Z 35020G25KT 02/M04 A2983 RMK A01 T00191039  RH  065%=      5-min Rain = 0
KOD1 111353Z 34016G23KT 02/M04 A2983 RMK A01 T00191039  RH  065%=      5-min Rain = 0
KOD1 111354Z 34017G23KT 02/M04 A2984 RMK A01 T00191039  RH  065%=      5-min Rain = 0
KOD1 111355Z 34021G26KT 02/M04 A2984 RMK A01 T00191040  RH  065%=      5-min Rain = 0
KOD1 111356Z 34020KT 02/M04 A2984 RMK A01 T00191040  RH  065%=      5-min Rain = 0
KOD1 111357Z 34017KT 02/M04 A2984 RMK A01 T00191040  RH  065%=      5-min Rain = 0
KOD1 111358Z 33013KT 02/M04 A2985 RMK A01 T00181040  RH  065%=      5-min Rain = 0
KOD1 111359Z 33018G23KT 02/M04 A2985 RMK A01 T00181043  RH  064%=      5-min Rain = 0
KOD1 111400Z 33017KT 02/M04 A2985 RMK A01 T00171044  RH  064%=      5-min Rain = 0
KOD1 111401Z 33016G22KT 02/M04 A2985 RMK A01 T00161044  RH  064%=      5-min Rain = 0
KOD1 111402Z 33017G22KT 02/M05 A2985 RMK A01 T00161045  RH  064%=      5-min Rain = 0
KOD1 111403Z 33021KT 02/M05 A2985 RMK A01 T00151046  RH  064%=      5-min Rain = 0
KOD1 111404Z 33020G26KT 02/M05 A2985 RMK A01 T00151046  RH  064%=      5-min Rain = 0
KOD1 111405Z 33026G32KT 01/M05 A2985 RMK A01 T00141048  RH  064%=      5-min Rain = 0
KOD1 111406Z 33028G34KT 01/M05 A2985 RMK A01 T00131049  RH  063%=      5-min Rain = 0
KOD1 111407Z 33029G34KT 01/M05 A2986 RMK A01 T00131049  RH  063%=      5-min Rain = 0
KOD1 111408Z 34025KT 01/M05 A2986 RMK A01 T00121050  RH  063%=      5-min Rain = 0
KOD1 111409Z 34024KT 01/M05 A2986 RMK A01 T00111051  RH  063%=      5-min Rain = 0
KOD1 111410Z 33020G25KT 01/M05 A2986 RMK A01 T00111051  RH  063%=      5-min Rain = 0
KOD1 111411Z 33026G32KT 01/M05 A2986 RMK A01 T00111052  RH  063%=      5-min Rain = 0
KOD1 111412Z 34024G31KT 01/M05 A2987 RMK A01 T00101052  RH  063%=      5-min Rain = 0
KOD1 111413Z 33022G29KT 01/M05 A2987 RMK A01 T00101052  RH  063%=      5-min Rain = 0
KOD1 111414Z 34023G29KT 01/M05 A2987 RMK A01 T00091053  RH  063%=      5-min Rain = 0
KOD1 111415Z 34023G28KT 01/M05 A2987 RMK A01 T00091053  RH  063%=      5-min Rain = 0
KOD1 111416Z 33019G28KT 01/M05 A2988 RMK A01 T00091053  RH  063%=      5-min Rain = 0
KOD1 111417Z 34025G31KT 01/M05 A2988 RMK A01 T00091053  RH  063%=      5-min Rain = 0
KOD1 111418Z 34019G26KT 01/M05 A2988 RMK A01 T00091053  RH  064%=      5-min Rain = 0
KOD1 111419Z 33017KT 01/M05 A2988 RMK A01 T00091053  RH  063%=      5-min Rain = 0
KOD1 111420Z 33026KT 01/M05 A2988 RMK A01 T00081054  RH  063%=      5-min Rain = 0
KOD1 111421Z 34021KT 01/M05 A2989 RMK A01 T00081054  RH  063%=      5-min Rain = 0
KOD1 111422Z 34021G26KT 01/M05 A2989 RMK A01 T00081054  RH  063%=      5-min Rain = 0
KOD1 111423Z 34018G23KT 01/M05 A2989 RMK A01 T00081054  RH  063%=      5-min Rain = 0
KOD1 111424Z 34018KT 01/M05 A2989 RMK A01 T00081054  RH  063%=      5-min Rain = 0
KOD1 111425Z 34020KT 01/M05 A2989 RMK A01 T00081054  RH  063%=      5-min Rain = 0
KOD1 111426Z 35023G29KT 01/M05 A299 RMK A01 T00081054  RH  064%=      5-min Rain = 0
KOD1 111427Z 35022G28KT 01/M05 A299 RMK A01 T00071054  RH  064%=      5-min Rain = 0
KOD1 111428Z 34020KT 01/M05 A299 RMK A01 T00071053  RH  064%=      5-min Rain = 0
KOD1 111429Z 34018G24KT 01/M05 A299 RMK A01 T00071054  RH  064%=      5-min Rain = 0
KOD1 111430Z 34015KT 01/M05 A299 RMK A01 T00071053  RH  064%=      5-min Rain = 0
KOD1 111431Z 34018G23KT 01/M05 A2991 RMK A01 T00071054  RH  064%=      5-min Rain = 0
KOD1 111432Z 34023G30KT 01/M06 A2991 RMK A01 T00071055  RH  063%=      5-min Rain = 0
KOD1 111433Z 34024G29KT 01/M06 A2991 RMK A01 T00071056  RH  063%=      5-min Rain = 0
KOD1 111434Z 34026G32KT 01/M06 A2991 RMK A01 T00061057  RH  063%=      5-min Rain = 0
KOD1 111435Z 34028KT 01/M06 A2991 RMK A01 T00051058  RH  063%=      5-min Rain = 0
KOD1 111436Z 34026G32KT 01/M06 A2991 RMK A01 T00051058  RH  063%=      5-min Rain = 0
KOD1 111437Z 34024KT 00/M06 A2991 RMK A01 T00041059  RH  063%=      5-min Rain = 0
KOD1 111438Z 34025G31KT 00/M06 A2991 RMK A01 T00041059  RH  063%=      5-min Rain = 0
KOD1 111439Z 34026G32KT 00/M06 A2991 RMK A01 T00041059  RH  063%=      5-min Rain = 0
KOD1 111440Z 34028G34KT 00/M06 A2991 RMK A01 T00041060  RH  063%=      5-min Rain = 0
KOD1 111441Z 34027KT 00/M06 A2992 RMK A01 T00031060  RH  062%=      5-min Rain = 0
KOD1 111442Z 34025G31KT 00/M06 A2992 RMK A01 T00031060  RH  063%=      5-min Rain = 0
KOD1 111443Z 34025KT 00/M06 A2992 RMK A01 T00031060  RH  063%=      5-min Rain = 0
KOD1 111444Z 34019G24KT 00/M06 A2992 RMK A01 T00031059  RH  063%=      5-min Rain = 0
KOD1 111445Z 35022KT 00/M06 A2992 RMK A01 T00031059  RH  063%=      5-min Rain = 0
KOD1 111446Z 35023KT 00/M06 A2992 RMK A01 T00031060  RH  063%=      5-min Rain = 0
KOD1 111447Z 34021G27KT 00/M06 A2992 RMK A01 T00031060  RH  063%=      5-min Rain = 0
KOD1 111448Z 35024G31KT 00/M06 A2992 RMK A01 T00031060  RH  062%=      5-min Rain = 0
KOD1 111449Z 35018G24KT 00/M06 A2992 RMK A01 T00031059  RH  063%=      5-min Rain = 0
KOD1 111450Z 35024KT 00/M06 A2992 RMK A01 T00041060  RH  062%=      5-min Rain = 0
KOD1 111451Z 35025G31KT 00/M06 A2992 RMK A01 T00041060  RH  062%=      5-min Rain = 0
KOD1 111452Z 35020G25KT 00/M06 A2992 RMK A01 T00041060  RH  062%=      5-min Rain = 0
KOD1 111453Z 34018KT 00/M06 A2993 RMK A01 T00041059  RH  063%=      5-min Rain = 0
KOD1 111454Z 35024KT 00/M06 A2993 RMK A01 T00041060  RH  062%=      5-min Rain = 0
KOD1 111455Z 34023KT 00/M06 A2992 RMK A01 T00041060  RH  062%=      5-min Rain = 0
KOD1 111456Z 34020KT 00/M06 A2992 RMK A01 T00041060  RH  062%=      5-min Rain = 0
KOD1 111457Z 34019KT 00/M06 A2992 RMK A01 T00041059  RH  063%=      5-min Rain = 0
KOD1 111458Z 34017G23KT 00/M06 A2992 RMK A01 T00041059  RH  063%=      5-min Rain = 0
KOD1 111459Z 34018KT 00/M06 A2992 RMK A01 T00041059  RH  063%=      5-min Rain = 0
KOD1 111500Z 33019KT 00/M06 A2992 RMK A01 T00041059  RH  063%=      5-min Rain = 0
KOD1 111501Z 34022G27KT 00/M06 A2992 RMK A01 T00041059  RH  062%=      5-min Rain = 0
KOD1 111502Z 34023KT 00/M06 A2993 RMK A01 T00041060  RH  062%=      5-min Rain = 0
KOD1 111503Z 34022G29KT 00/M06 A2993 RMK A01 T00041059  RH  062%=      5-min Rain = 0
KOD1 111504Z 34024G31KT 00/M06 A2993 RMK A01 T00041060  RH  062%=      5-min Rain = 0
KOD1 111505Z 34027G35KT 00/M06 A2993 RMK A01 T00041060  RH  062%=      5-min Rain = 0
KOD1 111506Z 35029KT 00/M06 A2993 RMK A01 T00041060  RH  062%=      5-min Rain = 0
KOD1 111507Z 35028KT 00/M06 A2993 RMK A01 T00041060  RH  062%=      5-min Rain = 0
KOD1 111508Z 34024G29KT 00/M06 A2994 RMK A01 T00041060  RH  062%=      5-min Rain = 0
KOD1 111509Z 35024G30KT 00/M06 A2994 RMK A01 T00041060  RH  062%=      5-min Rain = 0
KOD1 111510Z 34028G33KT 00/M06 A2994 RMK A01 T00041060  RH  062%=      5-min Rain = 0
KOD1 111511Z 34026KT 00/M06 A2994 RMK A01 T00041060  RH  062%=      5-min Rain = 0
KOD1 111512Z 34023G28KT 00/M06 A2994 RMK A01 T00041060  RH  062%=      5-min Rain = 0
KOD1 111513Z 34024KT 00/M06 A2994 RMK A01 T00041060  RH  062%=      5-min Rain = 0
KOD1 111514Z 34026G34KT 00/M06 A2994 RMK A01 T00041060  RH  062%=      5-min Rain = 0
KOD1 111515Z 34024G30KT 00/M06 A2995 RMK A01 T00041059  RH  062%=      5-min Rain = 0
KOD1 111516Z 34024KT 01/M06 A2995 RMK A01 T00051060  RH  062%=      5-min Rain = 0
KOD1 111517Z 35026G35KT 01/M06 A2995 RMK A01 T00051060  RH  062%=      5-min Rain = 0
KOD1 111518Z 34026G32KT 01/M06 A2995 RMK A01 T00051060  RH  062%=      5-min Rain = 0
KOD1 111519Z 34028KT 01/M06 A2995 RMK A01 T00051060  RH  062%=      5-min Rain = 0
KOD1 111520Z 34027KT 00/M06 A2995 RMK A01 T00041060  RH  062%=      5-min Rain = 0
KOD1 111521Z 34026G32KT 00/M06 A2995 RMK A01 T00041060  RH  062%=      5-min Rain = 0
KOD1 111522Z 34027KT 00/M06 A2995 RMK A01 T00041060  RH  062%=      5-min Rain = 0
KOD1 111523Z 35024G31KT 00/M06 A2995 RMK A01 T00041059  RH  062%=      5-min Rain = 0
KOD1 111524Z 34023G28KT 00/M06 A2995 RMK A01 T00041059  RH  062%=      5-min Rain = 0
KOD1 111525Z 34025KT 01/M06 A2995 RMK A01 T00051059  RH  062%=      5-min Rain = 0
KOD1 111526Z 35025G32KT 01/M06 A2995 RMK A01 T00051059  RH  062%=      5-min Rain = 0
KOD1 111527Z 35023KT 01/M06 A2995 RMK A01 T00051059  RH  062%=      5-min Rain = 0
KOD1 111528Z 35025G30KT 01/M06 A2995 RMK A01 T00051059  RH  062%=      5-min Rain = 0
KOD1 111529Z 34022G30KT 01/M06 A2995 RMK A01 T00051059  RH  062%=      5-min Rain = 0
KOD1 111530Z 34024G30KT 01/M06 A2995 RMK A01 T00051059  RH  062%=      5-min Rain = 0
KOD1 111531Z 34027G32KT 01/M06 A2995 RMK A01 T00051060  RH  062%=      5-min Rain = 0
KOD1 111532Z 34025G31KT 01/M06 A2996 RMK A01 T00051060  RH  062%=      5-min Rain = 0
KOD1 111533Z 34022G27KT 01/M06 A2996 RMK A01 T00051059  RH  062%=      5-min Rain = 0
KOD1 111534Z 34024G29KT 01/M06 A2996 RMK A01 T00051060  RH  062%=      5-min Rain = 0
KOD1 111535Z 34024G32KT 01/M06 A2996 RMK A01 T00051059  RH  062%=      5-min Rain = 0
KOD1 111536Z 34023G31KT 01/M06 A2996 RMK A01 T00051059  RH  062%=      5-min Rain = 0
KOD1 111537Z 34025G32KT 01/M06 A2996 RMK A01 T00061059  RH  062%=      5-min Rain = 0
KOD1 111538Z 34026G34KT 01/M06 A2996 RMK A01 T00061059  RH  062%=      5-min Rain = 0
KOD1 111539Z 34028G36KT 01/M06 A2996 RMK A01 T00061059  RH  062%=      5-min Rain = 0
KOD1 111540Z 34027KT 01/M06 A2996 RMK A01 T00061059  RH  062%=      5-min Rain = 0
KOD1 111541Z 34028G37KT 01/M06 A2996 RMK A01 T00051059  RH  062%=      5-min Rain = 0
KOD1 111542Z 34021G28KT 01/M06 A2996 RMK A01 T00061058  RH  062%=      5-min Rain = 0
KOD1 111543Z 34023G31KT 01/M06 A2996 RMK A01 T00071059  RH  062%=      5-min Rain = 0
KOD1 111544Z 34029G37KT 01/M06 A2996 RMK A01 T00061060  RH  061%=      5-min Rain = 0
KOD1 111545Z 35030G37KT 01/M06 A2996 RMK A01 T00061060  RH  061%=      5-min Rain = 0
KOD1 111546Z 35029G35KT 01/M06 A2996 RMK A01 T00061060  RH  061%=      5-min Rain = 0
KOD1 111547Z 35030KT 01/M06 A2996 RMK A01 T00061061  RH  061%=      5-min Rain = 0
KOD1 111548Z 35029G34KT 01/M06 A2996 RMK A01 T00061060  RH  061%=      5-min Rain = 0
KOD1 111549Z 35030KT 01/M06 A2996 RMK A01 T00051061  RH  061%=      5-min Rain = 0
KOD1 111550Z 35027KT 01/M06 A2996 RMK A01 T00051061  RH  061%=      5-min Rain = 0
KOD1 111551Z 34023G30KT 01/M06 A2997 RMK A01 T00051060  RH  061%=      5-min Rain = 0
KOD1 111552Z 34024G29KT 01/M06 A2997 RMK A01 T00061060  RH  061%=      5-min Rain = 0
KOD1 111553Z 34025G30KT 01/M06 A2997 RMK A01 T00061060  RH  061%=      5-min Rain = 0
KOD1 111554Z 34025KT 01/M06 A2997 RMK A01 T00061059  RH  061%=      5-min Rain = 0
KOD1 111555Z 34022G27KT 01/M06 A2997 RMK A01 T00071060  RH  061%=      5-min Rain = 0
KOD1 111556Z 34021KT 01/M06 A2997 RMK A01 T00071059  RH  061%=      5-min Rain = 0
KOD1 111557Z 34017KT 01/M06 A2997 RMK A01 T00091058  RH  061%=      5-min Rain = 0
KOD1 111558Z 35021G26KT 01/M06 A2997 RMK A01 T00111057  RH  060%=      5-min Rain = 0
KOD1 111559Z 34018G23KT 01/M06 A2998 RMK A01 T00131057  RH  059%=      5-min Rain = 0
KOD1 111600Z 34021G27KT 01/M06 A2998 RMK A01 T00141057  RH  059%=      5-min Rain = 0
KOD1 111601Z 34023G29KT 02/M06 A2998 RMK A01 T00151057  RH  059%=      5-min Rain = 0
KOD1 111602Z 34026KT 02/M06 A2998 RMK A01 T00151058  RH  058%=      5-min Rain = 0
KOD1 111603Z 34027G33KT 01/M06 A2998 RMK A01 T00141059  RH  059%=      5-min Rain = 0
KOD1 111604Z 34028G33KT 01/M06 A2998 RMK A01 T00121060  RH  059%=      5-min Rain = 0
KOD1 111605Z 34025G32KT 01/M06 A2998 RMK A01 T00101060  RH  059%=      5-min Rain = 0
KOD1 111606Z 34025G32KT 01/M06 A2998 RMK A01 T00091060  RH  060%=      5-min Rain = 0
KOD1 111607Z 34023G28KT 01/M06 A2999 RMK A01 T00081060  RH  060%=      5-min Rain = 0
KOD1 111608Z 34024G29KT 01/M06 A2999 RMK A01 T00081060  RH  060%=      5-min Rain = 0
KOD1 111609Z 34022KT 01/M06 A2999 RMK A01 T00071061  RH  060%=      5-min Rain = 0
KOD1 111610Z 34020G26KT 01/M06 A2999 RMK A01 T00071060  RH  061%=      5-min Rain = 0
KOD1 111611Z 34025G36KT 01/M06 A2999 RMK A01 T00091059  RH  061%=      5-min Rain = 0
KOD1 111612Z 34028G35KT 01/M06 A2999 RMK A01 T00101059  RH  060%=      5-min Rain = 0
KOD1 111613Z 35026KT 01/M06 A30 RMK A01 T00111058  RH  060%=      5-min Rain = 0
KOD1 111614Z 35029G35KT 01/M06 A30 RMK A01 T00131057  RH  059%=      5-min Rain = 0
KOD1 111615Z 34029G35KT 02/M06 A30 RMK A01 T00151058  RH  059%=      5-min Rain = 0
KOD1 111616Z 35024G29KT 02/M06 A30 RMK A01 T00161056  RH  059%=      5-min Rain = 0
KOD1 111617Z 35028G35KT 02/M06 A30 RMK A01 T00171057  RH  058%=      5-min Rain = 0
KOD1 111618Z 35030G35KT 02/M06 A30 RMK A01 T00171057  RH  058%=      5-min Rain = 0
KOD1 111619Z 35025G30KT 02/M06 A30 RMK A01 T00171056  RH  058%=      5-min Rain = 0
KOD1 111620Z 34023KT 02/M06 A30 RMK A01 T00191056  RH  058%=      5-min Rain = 0
KOD1 111621Z 34023KT 02/M06 A30 RMK A01 T00201055  RH  057%=      5-min Rain = 0
KOD1 111622Z 34021G28KT 02/M06 A30 RMK A01 T00211055  RH  057%=      5-min Rain = 0
KOD1 111623Z 34023KT 02/M06 A30 RMK A01 T00231055  RH  056%=      5-min Rain = 0
KOD1 111624Z 34025G32KT 02/M06 A3001 RMK A01 T00221055  RH  057%=      5-min Rain = 0
KOD1 111625Z 35023KT 02/M06 A3001 RMK A01 T00221055  RH  057%=      5-min Rain = 0
KOD1 111626Z 34021KT 02/M05 A3001 RMK A01 T00221054  RH  057%=      5-min Rain = 0
KOD1 111627Z 33026G32KT 02/M06 A3001 RMK A01 T00221055  RH  056%=      5-min Rain = 0
KOD1 111628Z 33026G32KT 02/M06 A3001 RMK A01 T00221056  RH  056%=      5-min Rain = 0
KOD1 111629Z 33029G35KT 02/M06 A3001 RMK A01 T00211056  RH  056%=      5-min Rain = 0
KOD1 111630Z 34026G31KT 02/M06 A3001 RMK A01 T00191057  RH  057%=      5-min Rain = 0
KOD1 111631Z 33023G28KT 02/M06 A3001 RMK A01 T00181057  RH  057%=      5-min Rain = 0
KOD1 111632Z 32028KT 02/M06 A3001 RMK A01 T00191057  RH  057%=      5-min Rain = 0
KOD1 111633Z 33027G33KT 02/M06 A3001 RMK A01 T00181058  RH  057%=      5-min Rain = 0
KOD1 111634Z 33026G32KT 02/M06 A3001 RMK A01 T00171059  RH  057%=      5-min Rain = 0
KOD1 111635Z 34025G31KT 02/M06 A3002 RMK A01 T00161059  RH  058%=      5-min Rain = 0
KOD1 111636Z 33021KT 02/M06 A3002 RMK A01 T00161058  RH  058%=      5-min Rain = 0
KOD1 111637Z 33021G28KT 02/M06 A3002 RMK A01 T00181057  RH  058%=      5-min Rain = 0
KOD1 111638Z 33028KT 02/M06 A3002 RMK A01 T00181059  RH  057%=      5-min Rain = 0
KOD1 111639Z 33028G33KT 02/M06 A3002 RMK A01 T00171059  RH  057%=      5-min Rain = 0
KOD1 111640Z 33027KT 02/M06 A3002 RMK A01 T00171059  RH  057%=      5-min Rain = 0
KOD1 111641Z 33027G33KT 02/M06 A3002 RMK A01 T00171059  RH  057%=      5-min Rain = 0
KOD1 111642Z 33025G31KT 02/M06 A3002 RMK A01 T00181059  RH  057%=      5-min Rain = 0
KOD1 111643Z 33024KT 02/M06 A3003 RMK A01 T00191060  RH  056%=      5-min Rain = 0
KOD1 111644Z 34024KT 02/M06 A3003 RMK A01 T00201060  RH  055%=      5-min Rain = 0
KOD1 111645Z 34023G28KT 02/M06 A3003 RMK A01 T00201061  RH  055%=      5-min Rain = 0
KOD1 111646Z 33021G28KT 02/M06 A3003 RMK A01 T00191061  RH  055%=      5-min Rain = 0
KOD1 111647Z 33026G34KT 02/M06 A3003 RMK A01 T00171062  RH  056%=      5-min Rain = 0
KOD1 111648Z 34025G31KT 02/M06 A3003 RMK A01 T00161062  RH  056%=      5-min Rain = 0
KOD1 111649Z 34028G35KT 01/M06 A3003 RMK A01 T00141062  RH  057%=      5-min Rain = 0
KOD1 111650Z 34026G31KT 01/M06 A3003 RMK A01 T00131062  RH  057%=      5-min Rain = 0
KOD1 111651Z 33027KT 01/M06 A3003 RMK A01 T00121063  RH  058%=      5-min Rain = 0
KOD1 111652Z 33025G30KT 01/M06 A3003 RMK A01 T00111063  RH  058%=      5-min Rain = 0
KOD1 111653Z 34024KT 01/M06 A3003 RMK A01 T00111063  RH  058%=      5-min Rain = 0
KOD1 111654Z 34025G31KT 01/M06 A3004 RMK A01 T00121064  RH  057%=      5-min Rain = 0
KOD1 111655Z 33025G33KT 01/M06 A3004 RMK A01 T00111064  RH  057%=      5-min Rain = 0
KOD1 111656Z 33022G27KT 01/M06 A3004 RMK A01 T00121064  RH  057%=      5-min Rain = 0
KOD1 111657Z 33025G30KT 01/M06 A3004 RMK A01 T00131064  RH  057%=      5-min Rain = 0
KOD1 111658Z 33024G29KT 01/M06 A3004 RMK A01 T00141064  RH  056%=      5-min Rain = 0
KOD1 111659Z 33023G29KT 01/M06 A3004 RMK A01 T00141064  RH  056%=      5-min Rain = 0
KOD1 111700Z 34023G31KT 02/M06 A3004 RMK A01 T00151063  RH  056%=      5-min Rain = 0
KOD1 111701Z 34025G30KT 01/M06 A3005 RMK A01 T00141064  RH  056%=      5-min Rain = 0
KOD1 111702Z 34022G29KT 01/M06 A3005 RMK A01 T00141064  RH  056%=      5-min Rain = 0
KOD1 111703Z 34025G31KT 01/M06 A3005 RMK A01 T00141063  RH  056%=      5-min Rain = 0
KOD1 111704Z 33028G33KT 02/M06 A3005 RMK A01 T00151064  RH  056%=      5-min Rain = 0
KOD1 111705Z 33027KT 02/M06 A3005 RMK A01 T00161063  RH  056%=      5-min Rain = 0
KOD1 111706Z 35025KT 02/M06 A3005 RMK A01 T00161063  RH  056%=      5-min Rain = 0
KOD1 111707Z 34022G29KT 02/M06 A3005 RMK A01 T00181063  RH  055%=      5-min Rain = 0
KOD1 111708Z 33025G31KT 02/M07 A3005 RMK A01 T00171065  RH  054%=      5-min Rain = 0
KOD1 111709Z 34024G29KT 02/M07 A3005 RMK A01 T00161065  RH  055%=      5-min Rain = 0
KOD1 111710Z 33024G31KT 01/M07 A3005 RMK A01 T00141066  RH  055%=      5-min Rain = 0
KOD1 111711Z 34024G31KT 01/M07 A3005 RMK A01 T00141065  RH  056%=      5-min Rain = 0
KOD1 111712Z 34028G34KT 01/M07 A3005 RMK A01 T00141065  RH  056%=      5-min Rain = 0
KOD1 111713Z 34021G28KT 01/M06 A3006 RMK A01 T00141063  RH  056%=      5-min Rain = 0
KOD1 111714Z 34025G31KT 02/M06 A3005 RMK A01 T00181063  RH  055%=      5-min Rain = 0
KOD1 111715Z 36029G36KT 02/M06 A3006 RMK A01 T00191064  RH  054%=      5-min Rain = 0
KOD1 111716Z 35029G35KT 02/M06 A3006 RMK A01 T00211064  RH  053%=      5-min Rain = 0
KOD1 111717Z 35027G33KT 02/M07 A3006 RMK A01 T00221065  RH  053%=      5-min Rain = 0
KOD1 111718Z 36028KT 02/M07 A3005 RMK A01 T00221066  RH  052%=      5-min Rain = 0
KOD1 111719Z 00028KT 02/M07 A3005 RMK A01 T00231065  RH  052%=      5-min Rain = 0
KOD1 111720Z 35024G29KT 02/M06 A3005 RMK A01 T00241064  RH  052%=      5-min Rain = 0
KOD1 111721Z 35026G35KT 03/M06 A3005 RMK A01 T00271063  RH  052%=      5-min Rain = 0
KOD1 111722Z 35030G35KT 03/M07 A3006 RMK A01 T00261065  RH  051%=      5-min Rain = 0
KOD1 111723Z 34024G29KT 03/M06 A3006 RMK A01 T00261063  RH  052%=      5-min Rain = 0
KOD1 111724Z 35024G30KT 03/M06 A3006 RMK A01 T00271063  RH  052%=      5-min Rain = 0
KOD1 111725Z 34027KT 03/M06 A3005 RMK A01 T00271063  RH  051%=      5-min Rain = 0
KOD1 111726Z 34027G33KT 03/M06 A3005 RMK A01 T00261064  RH  052%=      5-min Rain = 0
KOD1 111727Z 35024G29KT 03/M06 A3006 RMK A01 T00251063  RH  052%=      5-min Rain = 0
KOD1 111728Z 35030G38KT 03/M06 A3006 RMK A01 T00251064  RH  052%=      5-min Rain = 0
KOD1 111729Z 34026KT 02/M06 A3006 RMK A01 T00241064  RH  052%=      5-min Rain = 0
KOD1 111730Z 34020KT 02/M06 A3006 RMK A01 T00241063  RH  053%=      5-min Rain = 0
KOD1 111731Z 34023G28KT 03/M06 A3006 RMK A01 T00261063  RH  052%=      5-min Rain = 0
KOD1 111732Z 34024G30KT 03/M06 A3006 RMK A01 T00261064  RH  051%=      5-min Rain = 0
KOD1 111733Z 34025G30KT 03/M06 A3006 RMK A01 T00261064  RH  052%=      5-min Rain = 0
KOD1 111734Z 35026G31KT 03/M06 A3006 RMK A01 T00251064  RH  052%=      5-min Rain = 0
KOD1 111735Z 35027KT 03/M07 A3006 RMK A01 T00251065  RH  052%=      5-min Rain = 0
KOD1 111736Z 35024G29KT 03/M06 A3006 RMK A01 T00251064  RH  052%=      5-min Rain = 0
KOD1 111737Z 35027G33KT 03/M07 A3006 RMK A01 T00261065  RH  051%=      5-min Rain = 0
KOD1 111738Z 34027G35KT 03/M07 A3006 RMK A01 T00251065  RH  052%=      5-min Rain = 0
KOD1 111739Z 34025G33KT 02/M07 A3006 RMK A01 T00241065  RH  052%=      5-min Rain = 0
KOD1 111740Z 34023G29KT 02/M07 A3006 RMK A01 T00241065  RH  052%=      5-min Rain = 0
KOD1 111741Z 35025G30KT 02/M07 A3006 RMK A01 T00241065  RH  052%=      5-min Rain = 0
KOD1 111742Z 34023KT 02/M06 A3006 RMK A01 T00241064  RH  052%=      5-min Rain = 0
KOD1 111743Z 35023G28KT 03/M06 A3006 RMK A01 T00251064  RH  052%=      5-min Rain = 0
KOD1 111744Z 34022G27KT 03/M06 A3006 RMK A01 T00261064  RH  052%=      5-min Rain = 0
KOD1 111745Z 35027G32KT 03/M07 A3007 RMK A01 T00261065  RH  051%=      5-min Rain = 0
KOD1 111746Z 34022G30KT 03/M07 A3006 RMK A01 T00261065  RH  051%=      5-min Rain = 0
KOD1 111747Z 34028G35KT 03/M07 A3006 RMK A01 T00251065  RH  051%=      5-min Rain = 0
KOD1 111748Z 34028G33KT 02/M07 A3007 RMK A01 T00241066  RH  051%=      5-min Rain = 0
KOD1 111749Z 34028G34KT 02/M07 A3007 RMK A01 T00241066  RH  051%=      5-min Rain = 0
KOD1 111750Z 34021G26KT 02/M07 A3007 RMK A01 T00231066  RH  052%=      5-min Rain = 0
KOD1 111751Z 34024G30KT 02/M07 A3007 RMK A01 T00231066  RH  052%=      5-min Rain = 0
KOD1 111752Z 34024KT 02/M07 A3007 RMK A01 T00231067  RH  051%=      5-min Rain = 0
KOD1 111753Z 34025G31KT 02/M07 A3007 RMK A01 T00241067  RH  051%=      5-min Rain = 0
KOD1 111754Z 33026G33KT 02/M07 A3007 RMK A01 T00231067  RH  051%=      5-min Rain = 0
KOD1 111755Z 35026KT 02/M07 A3007 RMK A01 T00231067  RH  051%=      5-min Rain = 0
KOD1 111756Z 34029G34KT 02/M07 A3007 RMK A01 T00221067  RH  052%=      5-min Rain = 0
KOD1 111757Z 34029G37KT 02/M07 A3007 RMK A01 T00211068  RH  052%=      5-min Rain = 0
KOD1 111758Z 34024G30KT 02/M07 A3007 RMK A01 T00211068  RH  052%=      5-min Rain = 0
KOD1 111759Z 34023G33KT 02/M07 A3007 RMK A01 T00221067  RH  051%=      5-min Rain = 0
KOD1 111800Z 35028G34KT 02/M07 A3007 RMK A01 T00221068  RH  051%=      5-min Rain = 0
KOD1 111801Z 34026G31KT 02/M07 A3007 RMK A01 T00221068  RH  051%=      5-min Rain = 0
KOD1 111802Z 35028KT 02/M07 A3007 RMK A01 T00221069  RH  051%=      5-min Rain = 0
KOD1 111803Z 35024G30KT 02/M07 A3007 RMK A01 T00221069  RH  051%=      5-min Rain = 0
KOD1 111804Z 35027G32KT 02/M07 A3007 RMK A01 T00231069  RH  051%=      5-min Rain = 0
KOD1 111805Z 35025G30KT 02/M07 A3007 RMK A01 T00221069  RH  051%=      5-min Rain = 0
KOD1 111806Z 34027KT 02/M07 A3007 RMK A01 T00221070  RH  051%=      5-min Rain = 0
KOD1 111807Z 34026KT 02/M07 A3008 RMK A01 T00221070  RH  051%=      5-min Rain = 0
KOD1 111808Z 34024G31KT 02/M07 A3008 RMK A01 T00211070  RH  051%=      5-min Rain = 0
KOD1 111809Z 34024G31KT 02/M07 A3008 RMK A01 T00221070  RH  051%=      5-min Rain = 0
KOD1 111810Z 34023KT 02/M07 A3008 RMK A01 T00221070  RH  051%=      5-min Rain = 0
KOD1 111811Z 34023KT 02/M07 A3008 RMK A01 T00231070  RH  050%=      5-min Rain = 0
KOD1 111812Z 34023G29KT 02/M07 A3008 RMK A01 T00241069  RH  050%=      5-min Rain = 0
KOD1 111813Z 34021G26KT 02/M07 A3008 RMK A01 T00241070  RH  050%=      5-min Rain = 0
KOD1 111814Z 34021G26KT 03/M07 A3008 RMK A01 T00251070  RH  050%=      5-min Rain = 0
KOD1 111815Z 34020KT 03/M07 A3008 RMK A01 T00261069  RH  050%=      5-min Rain = 0
KOD1 111816Z 34022G29KT 03/M07 A3008 RMK A01 T00281069  RH  049%=      5-min Rain = 0
KOD1 111817Z 35025KT 03/M07 A3008 RMK A01 T00291070  RH  048%=      5-min Rain = 0
KOD1 111818Z 35022G28KT 03/M07 A3008 RMK A01 T00301069  RH  048%=      5-min Rain = 0
KOD1 111819Z 36026G31KT 03/M07 A3008 RMK A01 T00301071  RH  047%=      5-min Rain = 0
KOD1 111820Z 35023G28KT 03/M07 A3008 RMK A01 T00291070  RH  048%=      5-min Rain = 0
KOD1 111821Z 35025G30KT 03/M07 A3008 RMK A01 T00301071  RH  048%=      5-min Rain = 0
KOD1 111822Z 34021G26KT 03/M07 A3008 RMK A01 T00301071  RH  047%=      5-min Rain = 0
KOD1 111823Z 34023KT 03/M07 A3008 RMK A01 T00301072  RH  047%=      5-min Rain = 0
KOD1 111824Z 34023G29KT 03/M07 A3008 RMK A01 T00301072  RH  047%=      5-min Rain = 0
KOD1 111825Z 34021G26KT 03/M07 A3008 RMK A01 T00291073  RH  047%=      5-min Rain = 0
KOD1 111826Z 35021KT 03/M07 A3008 RMK A01 T00311071  RH  047%=      5-min Rain = 0
KOD1 111827Z 34023KT 03/M07 A3008 RMK A01 T00331072  RH  046%=      5-min Rain = 0
KOD1 111828Z 35022G27KT 03/M07 A3008 RMK A01 T00331072  RH  046%=      5-min Rain = 0
KOD1 111829Z 35020G25KT 03/M07 A3008 RMK A01 T00341072  RH  046%=      5-min Rain = 0
KOD1 111830Z 35023G28KT 04/M07 A3008 RMK A01 T00351072  RH  045%=      5-min Rain = 0
KOD1 111831Z 35023KT 04/M07 A3008 RMK A01 T00351073  RH  045%=      5-min Rain = 0
KOD1 111832Z 34022KT 04/M07 A3008 RMK A01 T00361073  RH  045%=      5-min Rain = 0
KOD1 111833Z 33022KT 04/M08 A3008 RMK A01 T00361075  RH  044%=      5-min Rain = 0
KOD1 111834Z 33024G31KT 04/M08 A3008 RMK A01 T00351075  RH  044%=      5-min Rain = 0
KOD1 111835Z 34023G31KT 03/M08 A3008 RMK A01 T00341075  RH  045%=      5-min Rain = 0
KOD1 111836Z 34026G33KT 04/M08 A3008 RMK A01 T00351075  RH  045%=      5-min Rain = 0
KOD1 111837Z 34021KT 04/M08 A3008 RMK A01 T00351075  RH  045%=      5-min Rain = 0
KOD1 111838Z 35024G29KT 04/M08 A3008 RMK A01 T00361076  RH  044%=      5-min Rain = 0
KOD1 111839Z 35025G30KT 04/M08 A3009 RMK A01 T00361077  RH  044%=      5-min Rain = 0
KOD1 111840Z 34023G31KT 04/M08 A3009 RMK A01 T00351078  RH  043%=      5-min Rain = 0
KOD1 111841Z 34023G28KT 04/M08 A3009 RMK A01 T00351079  RH  043%=      5-min Rain = 0
KOD1 111842Z 35027KT 04/M08 A3009 RMK A01 T00351079  RH  043%=      5-min Rain = 0
KOD1 111843Z 35021G26KT 03/M08 A3009 RMK A01 T00341079  RH  043%=      5-min Rain = 0
KOD1 111844Z 35021G26KT 04/M08 A3009 RMK A01 T00351078  RH  043%=      5-min Rain = 0
KOD1 111845Z 36024G29KT 04/M08 A3009 RMK A01 T00361080  RH  042%=      5-min Rain = 0
KOD1 111846Z 36019G25KT 04/M08 A3009 RMK A01 T00351079  RH  043%=      5-min Rain = 0
KOD1 111847Z 34024G29KT 04/M08 A3009 RMK A01 T00371080  RH  042%=      5-min Rain = 0
KOD1 111848Z 33021G27KT 04/M08 A3009 RMK A01 T00381080  RH  042%=      5-min Rain = 0
KOD1 111849Z 33022KT 04/M08 A3009 RMK A01 T00391082  RH  041%=      5-min Rain = 0
KOD1 111850Z 34017G22KT 04/M08 A3009 RMK A01 T00401080  RH  041%=      5-min Rain = 0
KOD1 111851Z 35023G32KT 04/M08 A3009 RMK A01 T00421082  RH  040%=      5-min Rain = 0
KOD1 111852Z 34023G28KT 04/M08 A3009 RMK A01 T00421082  RH  040%=      5-min Rain = 0
KOD1 111853Z 34024G32KT 04/M08 A3009 RMK A01 T00421083  RH  040%=      5-min Rain = 0
KOD1 111854Z 34026KT 04/M08 A3009 RMK A01 T00411084  RH  040%=      5-min Rain = 0
KOD1 111855Z 34025G30KT 04/M09 A3009 RMK A01 T00401085  RH  040%=      5-min Rain = 0
KOD1 111856Z 34024KT 04/M09 A3009 RMK A01 T00391086  RH  040%=      5-min Rain = 0
KOD1 111857Z 33026KT 04/M09 A3009 RMK A01 T00401087  RH  039%=      5-min Rain = 0
KOD1 111858Z 35018G23KT 04/M09 A3009 RMK A01 T00411085  RH  039%=      5-min Rain = 0
KOD1 111859Z 35025G30KT 04/M09 A3009 RMK A01 T00431087  RH  038%=      5-min Rain = 0
KOD1 111900Z 35025G30KT 04/M09 A3009 RMK A01 T00441088  RH  038%=      5-min Rain = 0
KOD1 111901Z 35026KT 04/M09 A3009 RMK A01 T00431089  RH  038%=      5-min Rain = 0
KOD1 111902Z 35027G32KT 04/M09 A3009 RMK A01 T00411091  RH  038%=      5-min Rain = 0
KOD1 111903Z 35021G30KT 04/M09 A3009 RMK A01 T00411089  RH  038%=      5-min Rain = 0
KOD1 111904Z 34027G32KT 04/M09 A3009 RMK A01 T00421090  RH  037%=      5-min Rain = 0
KOD1 111905Z 34024G30KT 04/M09 A3009 RMK A01 T00411091  RH  038%=      5-min Rain = 0
KOD1 111906Z 34024G29KT 04/M09 A3009 RMK A01 T00421092  RH  037%=      5-min Rain = 0
KOD1 111907Z 34021G26KT 04/M09 A3009 RMK A01 T00421091  RH  038%=      5-min Rain = 0
KOD1 111908Z 34026G31KT 04/M09 A3009 RMK A01 T00421092  RH  037%=      5-min Rain = 0
KOD1 111909Z 34023G28KT 04/M09 A3009 RMK A01 T00411092  RH  037%=      5-min Rain = 0
KOD1 111910Z 35021KT 04/M09 A3009 RMK A01 T00421091  RH  037%=      5-min Rain = 0
KOD1 111911Z 34019G24KT 04/M09 A3009 RMK A01 T00431090  RH  037%=      5-min Rain = 0
KOD1 111912Z 34021KT 05/M09 A3009 RMK A01 T00451092  RH  036%=      5-min Rain = 0
KOD1 111913Z 34019KT 04/M09 A3009 RMK A01 T00441092  RH  037%=      5-min Rain = 0
KOD1 111914Z 36022G27KT 04/M09 A3009 RMK A01 T00441093  RH  036%=      5-min Rain = 0
KOD1 111915Z 34019G24KT 04/M09 A3009 RMK A01 T00441092  RH  037%=      5-min Rain = 0
KOD1 111916Z 35021KT 04/M09 A3009 RMK A01 T00441093  RH  036%=      5-min Rain = 0
KOD1 111917Z 35024KT 04/M10 A3009 RMK A01 T00441095  RH  036%=      5-min Rain = 0
KOD1 111918Z 35025KT 04/M10 A3009 RMK A01 T00431095  RH  036%=      5-min Rain = 0
KOD1 111919Z 34020G25KT 04/M10 A3009 RMK A01 T00421095  RH  036%=      5-min Rain = 0
KOD1 111920Z 33019KT 04/M09 A3009 RMK A01 T00431093  RH  036%=      5-min Rain = 0
KOD1 111921Z 33024KT 04/M10 A3009 RMK A01 T00431096  RH  036%=      5-min Rain = 0
KOD1 111922Z 33021G26KT 04/M10 A3009 RMK A01 T00421096  RH  036%=      5-min Rain = 0
KOD1 111923Z 34023G29KT 04/M10 A3009 RMK A01 T00431096  RH  036%=      5-min Rain = 0
KOD1 111924Z 34023G28KT 04/M10 A3009 RMK A01 T00421098  RH  035%=      5-min Rain = 0
KOD1 111925Z 35023G29KT 04/M10 A3009 RMK A01 T00421097  RH  036%=      5-min Rain = 0
KOD1 111926Z 35024G29KT 04/M10 A3009 RMK A01 T00421099  RH  035%=      5-min Rain = 0
KOD1 111927Z 35020KT 04/M10 A3009 RMK A01 T00431098  RH  035%=      5-min Rain = 0
KOD1 111928Z 35024KT 04/M10 A3009 RMK A01 T00441100  RH  034%=      5-min Rain = 0
KOD1 111929Z 35023KT 04/M10 A3009 RMK A01 T00441100  RH  034%=      5-min Rain = 0
KOD1 111930Z 33021KT 04/M10 A3009 RMK A01 T00441100  RH  034%=      5-min Rain = 0
KOD1 111931Z 34019KT 05/M10 A3009 RMK A01 T00451099  RH  034%=      5-min Rain = 0
KOD1 111932Z 34017KT 05/M10 A3009 RMK A01 T00461099  RH  034%=      5-min Rain = 0
KOD1 111933Z 35019KT 05/M10 A3009 RMK A01 T00481099  RH  034%=      5-min Rain = 0
KOD1 111934Z 35024KT 05/M10 A3009 RMK A01 T00471101  RH  033%=      5-min Rain = 0
KOD1 111935Z 35022KT 05/M10 A3009 RMK A01 T00461102  RH  033%=      5-min Rain = 0
KOD1 111936Z 34019G24KT 05/M10 A3009 RMK A01 T00451101  RH  034%=      5-min Rain = 0
KOD1 111937Z 34017G22KT 05/M10 A3009 RMK A01 T00451101  RH  034%=      5-min Rain = 0
KOD1 111938Z 35020KT 05/M10 A3009 RMK A01 T00461101  RH  033%=      5-min Rain = 0
KOD1 111939Z 36023KT 05/M10 A3009 RMK A01 T00461103  RH  033%=      5-min Rain = 0
KOD1 111940Z 35020G26KT 05/M10 A3009 RMK A01 T00451103  RH  033%=      5-min Rain = 0
KOD1 111941Z 35023G29KT 05/M10 A3009 RMK A01 T00451104  RH  033%=      5-min Rain = 0
KOD1 111942Z 35022KT 04/M10 A3009 RMK A01 T00441104  RH  033%=      5-min Rain = 0
KOD1 111943Z 35023KT 04/M10 A3009 RMK A01 T00431103  RH  034%=      5-min Rain = 0
KOD1 111944Z 35021KT 04/M10 A3009 RMK A01 T00431103  RH  034%=      5-min Rain = 0
KOD1 111945Z 35020G25KT 04/M10 A301 RMK A01 T00441104  RH  033%=      5-min Rain = 0
KOD1 111946Z 35019KT 04/M10 A301 RMK A01 T00441103  RH  033%=      5-min Rain = 0
KOD1 111947Z 35021KT 04/M10 A301 RMK A01 T00441104  RH  033%=      5-min Rain = 0
KOD1 111948Z 34022KT 04/M11 A301 RMK A01 T00441105  RH  033%=      5-min Rain = 0
KOD1 111949Z 33023G30KT 04/M11 A3009 RMK A01 T00421106  RH  033%=      5-min Rain = 0
KOD1 111950Z 33022KT 04/M11 A301 RMK A01 T00421107  RH  033%=      5-min Rain = 0
KOD1 111951Z 34020KT 04/M11 A3009 RMK A01 T00421106  RH  033%=      5-min Rain = 0
KOD1 111952Z 34024KT 04/M11 A3009 RMK A01 T00431107  RH  033%=      5-min Rain = 0
KOD1 111953Z 35026KT 04/M11 A3009 RMK A01 T00421108  RH  033%=      5-min Rain = 0
KOD1 111954Z 35021G28KT 04/M11 A3009 RMK A01 T00411107  RH  033%=      5-min Rain = 0
KOD1 111955Z 34021G26KT 04/M11 A3009 RMK A01 T00421108  RH  033%=      5-min Rain = 0
KOD1 111956Z 35020G27KT 04/M11 A301 RMK A01 T00421107  RH  033%=      5-min Rain = 0
KOD1 111957Z 35024G30KT 04/M11 A301 RMK A01 T00431108  RH  032%=      5-min Rain = 0
KOD1 111958Z 34023KT 04/M11 A301 RMK A01 T00421109  RH  032%=      5-min Rain = 0
KOD1 111959Z 35022KT 04/M11 A301 RMK A01 T00421109  RH  032%=      5-min Rain = 0
KOD1 112000Z 35023KT 04/M11 A301 RMK A01 T00431109  RH  032%=      5-min Rain = 0
KOD1 112001Z 34023G29KT 04/M11 A301 RMK A01 T00431109  RH  032%=      5-min Rain = 0
KOD1 112002Z 34022G30KT 04/M11 A301 RMK A01 T00431109  RH  032%=      5-min Rain = 0
KOD1 112003Z 34024G32KT 04/M11 A301 RMK A01 T00431110  RH  032%=      5-min Rain = 0
KOD1 112004Z 34025KT 04/M11 A301 RMK A01 T00431109  RH  032%=      5-min Rain = 0
KOD1 112005Z 34021G26KT 04/M11 A301 RMK A01 T00431109  RH  032%=      5-min Rain = 0
KOD1 112006Z 34022KT 04/M11 A301 RMK A01 T00441109  RH  032%=      5-min Rain = 0
KOD1 112007Z 34022G28KT 04/M11 A301 RMK A01 T00441109  RH  032%=      5-min Rain = 0
KOD1 112008Z 34022KT 05/M11 A301 RMK A01 T00451109  RH  032%=      5-min Rain = 0
KOD1 112009Z 34022KT 05/M11 A301 RMK A01 T00451109  RH  032%=      5-min Rain = 0
KOD1 112010Z 34022KT 04/M11 A301 RMK A01 T00441109  RH  032%=      5-min Rain = 0
KOD1 112011Z 34019KT 05/M11 A301 RMK A01 T00451108  RH  032%=      5-min Rain = 0
KOD1 112012Z 33022G27KT 05/M11 A301 RMK A01 T00461109  RH  031%=      5-min Rain = 0
KOD1 112013Z 34023G29KT 05/M11 A301 RMK A01 T00461109  RH  032%=      5-min Rain = 0
KOD1 112014Z 34019KT 05/M11 A301 RMK A01 T00461108  RH  032%=      5-min Rain = 0
KOD1 112015Z 34018G23KT 05/M11 A301 RMK A01 T00461108  RH  032%=      5-min Rain = 0
KOD1 112016Z 36017G22KT 05/M11 A301 RMK A01 T00471107  RH  032%=      5-min Rain = 0
KOD1 112017Z 35019KT 05/M11 A301 RMK A01 T00481108  RH  031%=      5-min Rain = 0
KOD1 112018Z 34021KT 05/M11 A301 RMK A01 T00481107  RH  031%=      5-min Rain = 0
KOD1 112019Z 34021KT 05/M11 A301 RMK A01 T00471108  RH  031%=      5-min Rain = 0
KOD1 112020Z 35020KT 05/M11 A301 RMK A01 T00471108  RH  032%=      5-min Rain = 0
KOD1 112021Z 35021G26KT 05/M11 A301 RMK A01 T00481108  RH  031%=      5-min Rain = 0
KOD1 112022Z 34019KT 05/M11 A301 RMK A01 T00491108  RH  031%=      5-min Rain = 0
KOD1 112023Z 34022KT 05/M11 A301 RMK A01 T00491108  RH  031%=      5-min Rain = 0
KOD1 112024Z 34019KT 05/M11 A301 RMK A01 T00511107  RH  031%=      5-min Rain = 0
KOD1 112025Z 35017G22KT 05/M11 A301 RMK A01 T00531106  RH  031%=      5-min Rain = 0
KOD1 112026Z 35018G23KT 05/M11 A301 RMK A01 T00541105  RH  031%=      5-min Rain = 0
KOD1 112027Z 35021KT 06/M11 A301 RMK A01 T00551106  RH  030%=      5-min Rain = 0
KOD1 112028Z 35018KT 05/M11 A301 RMK A01 T00541107  RH  030%=      5-min Rain = 0
KOD1 112029Z 35019KT 05/M11 A301 RMK A01 T00541106  RH  030%=      5-min Rain = 0
KOD1 112030Z 35022KT 05/M11 A301 RMK A01 T00541107  RH  030%=      5-min Rain = 0
KOD1 112031Z 35024KT 05/M11 A301 RMK A01 T00541107  RH  030%=      5-min Rain = 0
KOD1 112032Z 35019G25KT 05/M11 A301 RMK A01 T00531107  RH  030%=      5-min Rain = 0
KOD1 112033Z 35022KT 06/M11 A301 RMK A01 T00551106  RH  030%=      5-min Rain = 0
KOD1 112034Z 35019G25KT 06/M11 A301 RMK A01 T00551106  RH  030%=      5-min Rain = 0
KOD1 112035Z 35020KT 06/M11 A301 RMK A01 T00571105  RH  030%=      5-min Rain = 0
KOD1 112036Z 34021G26KT 06/M11 A301 RMK A01 T00591105  RH  030%=      5-min Rain = 0
KOD1 112037Z 35018G23KT 06/M10 A301 RMK A01 T00611104  RH  029%=      5-min Rain = 0
KOD1 112038Z 35023G29KT 06/M11 A301 RMK A01 T00631105  RH  029%=      5-min Rain = 0
KOD1 112039Z 34021G26KT 06/M11 A301 RMK A01 T00621106  RH  029%=      5-min Rain = 0
KOD1 112040Z 34021G26KT 06/M11 A301 RMK A01 T00611106  RH  029%=      5-min Rain = 0
KOD1 112041Z 35022G27KT 06/M11 A301 RMK A01 T00611106  RH  029%=      5-min Rain = 0
KOD1 112042Z 34018G23KT 06/M11 A3011 RMK A01 T00611105  RH  029%=      5-min Rain = 0
KOD1 112043Z 33019G24KT 06/M11 A301 RMK A01 T00641105  RH  029%=      5-min Rain = 0
KOD1 112044Z 34021KT 07/M11 A301 RMK A01 T00651106  RH  028%=      5-min Rain = 0
KOD1 112045Z 35022KT 07/M11 A301 RMK A01 T00651105  RH  028%=      5-min Rain = 0
KOD1 112046Z 34018G24KT 07/M11 A3011 RMK A01 T00671105  RH  028%=      5-min Rain = 0
KOD1 112047Z 33026G36KT 07/M11 A301 RMK A01 T00681107  RH  027%=      5-min Rain = 0
KOD1 112048Z 34025G30KT 07/M11 A301 RMK A01 T00681108  RH  027%=      5-min Rain = 0
KOD1 112049Z 34024G29KT 07/M11 A301 RMK A01 T00681108  RH  027%=      5-min Rain = 0
KOD1 112050Z 34025KT 07/M11 A301 RMK A01 T00691108  RH  027%=      5-min Rain = 0
KOD1 112051Z 34021G27KT 07/M11 A301 RMK A01 T00701107  RH  027%=      5-min Rain = 0
KOD1 112052Z 34023KT 07/M11 A301 RMK A01 T00711107  RH  027%=      5-min Rain = 0
KOD1 112053Z 35022KT 07/M11 A301 RMK A01 T00721107  RH  027%=      5-min Rain = 0
KOD1 112054Z 34024G30KT 07/M11 A301 RMK A01 T00721107  RH  027%=      5-min Rain = 0
KOD1 112055Z 34027G34KT 07/M11 A3011 RMK A01 T00711110  RH  026%=      5-min Rain = 0
KOD1 112056Z 34030G35KT 07/M11 A3011 RMK A01 T00691112  RH  026%=      5-min Rain = 0
KOD1 112057Z 34028KT 07/M11 A3011 RMK A01 T00661112  RH  027%=      5-min Rain = 0
KOD1 112058Z 33026G31KT 06/M11 A3011 RMK A01 T00641112  RH  027%=      5-min Rain = 0
KOD1 112059Z 33023G29KT 06/M11 A3011 RMK A01 T00641112  RH  027%=      5-min Rain = 0
KOD1 112100Z 33024KT 06/M11 A3011 RMK A01 T00641112  RH  027%=      5-min Rain = 0
KOD1 112101Z 34024KT 06/M11 A3011 RMK A01 T00631112  RH  027%=      5-min Rain = 0
KOD1 112102Z 33023G28KT 06/M11 A3011 RMK A01 T00631111  RH  028%=      5-min Rain = 0
KOD1 112103Z 34020G26KT 06/M11 A3011 RMK A01 T00641110  RH  028%=      5-min Rain = 0
KOD1 112104Z 34020G28KT 07/M11 A3011 RMK A01 T00651110  RH  027%=      5-min Rain = 0
KOD1 112105Z 35025KT 07/M11 A3011 RMK A01 T00661111  RH  027%=      5-min Rain = 0
KOD1 112106Z 34026G31KT 07/M11 A3011 RMK A01 T00651111  RH  027%=      5-min Rain = 0
KOD1 112107Z 34022G28KT 07/M11 A3011 RMK A01 T00651110  RH  027%=      5-min Rain = 0
KOD1 112108Z 34020KT 07/M11 A3011 RMK A01 T00651110  RH  027%=      5-min Rain = 0
KOD1 112109Z 34022G27KT 07/M11 A3011 RMK A01 T00651110  RH  027%=      5-min Rain = 0
KOD1 112110Z 35024KT 07/M11 A3011 RMK A01 T00651111  RH  027%=      5-min Rain = 0
KOD1 112111Z 35026KT 06/M11 A3011 RMK A01 T00641111  RH  027%=      5-min Rain = 0
KOD1 112112Z 35022G27KT 06/M11 A3011 RMK A01 T00641111  RH  027%=      5-min Rain = 0
KOD1 112113Z 35027G32KT 06/M11 A3011 RMK A01 T00641111  RH  027%=      5-min Rain = 0
KOD1 112114Z 35025KT 06/M11 A3011 RMK A01 T00641111  RH  027%=      5-min Rain = 0
KOD1 112115Z 35023KT 06/M11 A3012 RMK A01 T00641111  RH  027%=      5-min Rain = 0
KOD1 112116Z 34023KT 07/M11 A3012 RMK A01 T00651110  RH  027%=      5-min Rain = 0
KOD1 112117Z 34020KT 07/M11 A3012 RMK A01 T00661110  RH  027%=      5-min Rain = 0
KOD1 112118Z 34016G22KT 07/M11 A3012 RMK A01 T00681109  RH  027%=      5-min Rain = 0
KOD1 112119Z 35019G24KT 07/M11 A3012 RMK A01 T00701108  RH  027%=      5-min Rain = 0
KOD1 112120Z 34024G29KT 07/M11 A3012 RMK A01 T00711110  RH  026%=      5-min Rain = 0
KOD1 112121Z 34023G28KT 07/M11 A3012 RMK A01 T00701110  RH  026%=      5-min Rain = 0
KOD1 112122Z 34019G24KT 07/M11 A3012 RMK A01 T00691110  RH  027%=      5-min Rain = 0
KOD1 112123Z 35025G32KT 07/M11 A3012 RMK A01 T00691111  RH  026%=      5-min Rain = 0
KOD1 112124Z 34024G33KT 07/M11 A3012 RMK A01 T00681111  RH  027%=      5-min Rain = 0
KOD1 112125Z 34024G29KT 07/M11 A3012 RMK A01 T00691111  RH  027%=      5-min Rain = 0
KOD1 112126Z 34024G30KT 07/M11 A3012 RMK A01 T00691111  RH  026%=      5-min Rain = 0
KOD1 112127Z 33022G27KT 07/M11 A3012 RMK A01 T00681110  RH  027%=      5-min Rain = 0
KOD1 112128Z 34024G30KT 07/M11 A3012 RMK A01 T00691110  RH  026%=      5-min Rain = 0
KOD1 112129Z 34025KT 07/M11 A3012 RMK A01 T00691111  RH  027%=      5-min Rain = 0
KOD1 112130Z 34022KT 07/M11 A3013 RMK A01 T00681110  RH  027%=      5-min Rain = 0
KOD1 112131Z 34020G29KT 07/M11 A3013 RMK A01 T00681110  RH  027%=      5-min Rain = 0
KOD1 112132Z 34025G30KT 07/M11 A3013 RMK A01 T00691111  RH  026%=      5-min Rain = 0
KOD1 112133Z 34028KT 07/M11 A3013 RMK A01 T00681112  RH  026%=      5-min Rain = 0
KOD1 112134Z 34024G29KT 07/M11 A3013 RMK A01 T00661112  RH  027%=      5-min Rain = 0
KOD1 112135Z 33024G31KT 07/M11 A3013 RMK A01 T00661112  RH  027%=      5-min Rain = 0
KOD1 112136Z 34024KT 07/M11 A3013 RMK A01 T00651113  RH  027%=      5-min Rain = 0
KOD1 112137Z 33030G37KT 07/M11 A3013 RMK A01 T00651114  RH  027%=      5-min Rain = 0
KOD1 112138Z 34026G31KT 06/M11 A3013 RMK A01 T00641114  RH  027%=      5-min Rain = 0
KOD1 112139Z 34025KT 06/M11 A3013 RMK A01 T00641114  RH  027%=      5-min Rain = 0
KOD1 112140Z 34025G33KT 07/M11 A3013 RMK A01 T00651114  RH  026%=      5-min Rain = 0
KOD1 112141Z 34025G31KT 06/M12 A3013 RMK A01 T00641115  RH  026%=      5-min Rain = 0
KOD1 112142Z 35024KT 06/M11 A3013 RMK A01 T00631114  RH  027%=      5-min Rain = 0
KOD1 112143Z 34024KT 06/M11 A3013 RMK A01 T00631114  RH  027%=      5-min Rain = 0
KOD1 112144Z 35022G27KT 06/M11 A3013 RMK A01 T00631114  RH  027%=      5-min Rain = 0
KOD1 112145Z 34017G22KT 06/M11 A3014 RMK A01 T00641112  RH  027%=      5-min Rain = 0
KOD1 112146Z 34019G24KT 07/M11 A3013 RMK A01 T00661113  RH  027%=      5-min Rain = 0
KOD1 112147Z 34022G31KT 07/M11 A3013 RMK A01 T00671113  RH  026%=      5-min Rain = 0
KOD1 112148Z 35027G32KT 07/M11 A3014 RMK A01 T00661114  RH  026%=      5-min Rain = 0
KOD1 112149Z 35025G32KT 07/M11 A3014 RMK A01 T00651114  RH  027%=      5-min Rain = 0
KOD1 112150Z 35026KT 06/M11 A3014 RMK A01 T00641114  RH  027%=      5-min Rain = 0
KOD1 112151Z 35023KT 07/M11 A3014 RMK A01 T00651113  RH  027%=      5-min Rain = 0
KOD1 112152Z 35024G29KT 06/M11 A3014 RMK A01 T00641114  RH  027%=      5-min Rain = 0
KOD1 112153Z 34022G28KT 06/M11 A3014 RMK A01 T00641113  RH  027%=      5-min Rain = 0
KOD1 112154Z 34021KT 06/M11 A3014 RMK A01 T00631113  RH  027%=      5-min Rain = 0
KOD1 112155Z 35025G30KT 06/M11 A3014 RMK A01 T00631113  RH  027%=      5-min Rain = 0
KOD1 112156Z 34022KT 06/M11 A3014 RMK A01 T00631113  RH  027%=      5-min Rain = 0
KOD1 112157Z 34022G28KT 06/M11 A3014 RMK A01 T00631112  RH  027%=      5-min Rain = 0
KOD1 112158Z 35024KT 06/M11 A3014 RMK A01 T00631113  RH  027%=      5-min Rain = 0
KOD1 112159Z 35024G30KT 06/M11 A3014 RMK A01 T00631112  RH  027%=      5-min Rain = 0
KOD1 112200Z 35022G27KT 06/M11 A3014 RMK A01 T00631112  RH  027%=      5-min Rain = 0
KOD1 112201Z 35020KT 06/M11 A3014 RMK A01 T00641111  RH  027%=      5-min Rain = 0
KOD1 112202Z 36023KT 07/M11 A3014 RMK A01 T00651112  RH  027%=      5-min Rain = 0
KOD1 112203Z 35023KT 06/M11 A3014 RMK A01 T00641112  RH  027%=      5-min Rain = 0
KOD1 112204Z 35020G25KT 07/M11 A3014 RMK A01 T00651111  RH  027%=      5-min Rain = 0
KOD1 112205Z 35025G30KT 07/M11 A3014 RMK A01 T00651112  RH  027%=      5-min Rain = 0
KOD1 112206Z 35022G27KT 07/M11 A3014 RMK A01 T00651111  RH  027%=      5-min Rain = 0
KOD1 112207Z 35021KT 07/M11 A3014 RMK A01 T00651111  RH  027%=      5-min Rain = 0
KOD1 112208Z 35019G24KT 07/M11 A3014 RMK A01 T00651111  RH  027%=      5-min Rain = 0
KOD1 112209Z 34021G26KT 07/M11 A3014 RMK A01 T00651111  RH  027%=      5-min Rain = 0
KOD1 112210Z 35021KT 07/M11 A3014 RMK A01 T00651111  RH  027%=      5-min Rain = 0
KOD1 112211Z 35018KT 07/M11 A3014 RMK A01 T00661110  RH  027%=      5-min Rain = 0
KOD1 112212Z 34017KT 07/M11 A3014 RMK A01 T00661110  RH  027%=      5-min Rain = 0
KOD1 112213Z 34016KT 07/M11 A3014 RMK A01 T00671110  RH  027%=      5-min Rain = 0
KOD1 112214Z 34022KT 07/M11 A3014 RMK A01 T00671111  RH  027%=      5-min Rain = 0
KOD1 112215Z 33021KT 07/M11 A3014 RMK A01 T00651111  RH  027%=      5-min Rain = 0
KOD1 112216Z 34019G25KT 07/M11 A3015 RMK A01 T00651111  RH  027%=      5-min Rain = 0
KOD1 112217Z 34022KT 06/M11 A3015 RMK A01 T00641111  RH  027%=      5-min Rain = 0
KOD1 112218Z 34020KT 06/M11 A3015 RMK A01 T00641111  RH  027%=      5-min Rain = 0
KOD1 112219Z 34020KT 06/M11 A3015 RMK A01 T00641111  RH  027%=      5-min Rain = 0
KOD1 112220Z 34022G31KT 06/M11 A3015 RMK A01 T00641111  RH  027%=      5-min Rain = 0
KOD1 112221Z 34024G30KT 06/M11 A3015 RMK A01 T00631112  RH  027%=      5-min Rain = 0
KOD1 112222Z 34023G30KT 06/M11 A3015 RMK A01 T00621112  RH  027%=      5-min Rain = 0
KOD1 112223Z 34022G27KT 06/M11 A3015 RMK A01 T00621112  RH  027%=      5-min Rain = 0
KOD1 112224Z 34027G34KT 06/M11 A3015 RMK A01 T00621113  RH  027%=      5-min Rain = 0
KOD1 112225Z 33023G30KT 06/M11 A3015 RMK A01 T00611113  RH  027%=      5-min Rain = 0
KOD1 112226Z 34022KT 06/M11 A3015 RMK A01 T00611113  RH  027%=      5-min Rain = 0
KOD1 112227Z 34020G25KT 06/M11 A3015 RMK A01 T00611113  RH  027%=      5-min Rain = 0
KOD1 112228Z 33020G27KT 06/M11 A3015 RMK A01 T00611113  RH  027%=      5-min Rain = 0
KOD1 112229Z 34026KT 06/M11 A3015 RMK A01 T00611113  RH  027%=      5-min Rain = 0
KOD1 112230Z 34024G29KT 06/M11 A3015 RMK A01 T00611113  RH  028%=      5-min Rain = 0
KOD1 112231Z 33021G29KT 06/M11 A3015 RMK A01 T00601113  RH  028%=      5-min Rain = 0
KOD1 112232Z 34023KT 06/M11 A3016 RMK A01 T00601113  RH  028%=      5-min Rain = 0
KOD1 112233Z 34024G30KT 06/M11 A3016 RMK A01 T00601113  RH  028%=      5-min Rain = 0
KOD1 112234Z 34025KT 06/M11 A3016 RMK A01 T00601113  RH  028%=      5-min Rain = 0
KOD1 112235Z 33021G28KT 06/M11 A3016 RMK A01 T00591113  RH  028%=      5-min Rain = 0
KOD1 112236Z 34019G25KT 06/M11 A3016 RMK A01 T00601113  RH  028%=      5-min Rain = 0
KOD1 112237Z 33022G27KT 06/M11 A3016 RMK A01 T00601112  RH  028%=      5-min Rain = 0
KOD1 112238Z 34023KT 06/M11 A3016 RMK A01 T00601112  RH  028%=      5-min Rain = 0
KOD1 112239Z 33019KT 06/M11 A3016 RMK A01 T00591112  RH  028%=      5-min Rain = 0
KOD1 112240Z 34019G27KT 06/M11 A3016 RMK A01 T00601112  RH  028%=      5-min Rain = 0
KOD1 112241Z 33026KT 06/M11 A3016 RMK A01 T00591113  RH  028%=      5-min Rain = 0
KOD1 112242Z 34021KT 06/M11 A3016 RMK A01 T00591113  RH  028%=      5-min Rain = 0
KOD1 112243Z 34021G26KT 06/M11 A3016 RMK A01 T00581113  RH  028%=      5-min Rain = 0
KOD1 112244Z 34021KT 06/M11 A3016 RMK A01 T00581113  RH  028%=      5-min Rain = 0
KOD1 112245Z 34025G35KT 06/M11 A3016 RMK A01 T00571113  RH  028%=      5-min Rain = 0
KOD1 112246Z 33024G30KT 06/M11 A3016 RMK A01 T00571113  RH  028%=      5-min Rain = 0
KOD1 112247Z 33022G27KT 06/M11 A3016 RMK A01 T00561113  RH  028%=      5-min Rain = 0
KOD1 112248Z 34025G33KT 06/M11 A3016 RMK A01 T00561114  RH  028%=      5-min Rain = 0
KOD1 112249Z 33023KT 06/M11 A3016 RMK A01 T00561114  RH  028%=      5-min Rain = 0
KOD1 112250Z 34023KT 06/M11 A3016 RMK A01 T00561114  RH  028%=      5-min Rain = 0
KOD1 112251Z 34020G27KT 06/M11 A3016 RMK A01 T00561113  RH  028%=      5-min Rain = 0
KOD1 112252Z 34024G29KT 06/M11 A3016 RMK A01 T00561113  RH  028%=      5-min Rain = 0
KOD1 112253Z 34024G29KT 06/M11 A3016 RMK A01 T00551113  RH  028%=      5-min Rain = 0
KOD1 112254Z 34026KT 06/M11 A3016 RMK A01 T00551113  RH  029%=      5-min Rain = 0
KOD1 112255Z 34020KT 05/M11 A3016 RMK A01 T00541113  RH  029%=      5-min Rain = 0
KOD1 112256Z 34019KT 05/M11 A3017 RMK A01 T00541113  RH  029%=      5-min Rain = 0
KOD1 112257Z 34023KT 05/M11 A3016 RMK A01 T00541113  RH  029%=      5-min Rain = 0
KOD1 112258Z 34020G26KT 05/M11 A3016 RMK A01 T00541113  RH  029%=      5-min Rain = 0
KOD1 112259Z 34018G23KT 05/M11 A3016 RMK A01 T00541112  RH  029%=      5-min Rain = 0
KOD1 112300Z 34022G27KT 05/M11 A3016 RMK A01 T00541112  RH  029%=      5-min Rain = 0
KOD1 112301Z 34019KT 05/M11 A3016 RMK A01 T00541112  RH  029%=      5-min Rain = 0
KOD1 112302Z 34021G26KT 05/M11 A3016 RMK A01 T00541112  RH  029%=      5-min Rain = 0
KOD1 112303Z 34020KT 05/M11 A3017 RMK A01 T00531112  RH  029%=      5-min Rain = 0
KOD1 112304Z 34018G23KT 05/M11 A3017 RMK A01 T00531111  RH  029%=      5-min Rain = 0
KOD1 112305Z 33018KT 05/M11 A3017 RMK A01 T00531111  RH  029%=      5-min Rain = 0
KOD1 112306Z 33016G21KT 05/M11 A3017 RMK A01 T00531111  RH  030%=      5-min Rain = 0
KOD1 112307Z 33018G23KT 05/M11 A3017 RMK A01 T00531111  RH  030%=      5-min Rain = 0
KOD1 112308Z 34021KT 05/M11 A3016 RMK A01 T00521112  RH  030%=      5-min Rain = 0
KOD1 112309Z 33024KT 05/M11 A3016 RMK A01 T00521112  RH  030%=      5-min Rain = 0
KOD1 112310Z 34024KT 05/M11 A3016 RMK A01 T00511112  RH  030%=      5-min Rain = 0
KOD1 112311Z 33021G28KT 05/M11 A3016 RMK A01 T00511112  RH  030%=      5-min Rain = 0
KOD1 112312Z 34021G26KT 05/M11 A3016 RMK A01 T00511112  RH  030%=      5-min Rain = 0
KOD1 112313Z 34021KT 05/M11 A3016 RMK A01 T00501112  RH  030%=      5-min Rain = 0
KOD1 112314Z 34019KT 05/M11 A3017 RMK A01 T00501112  RH  030%=      5-min Rain = 0
KOD1 112315Z 34019KT 05/M11 A3017 RMK A01 T00501112  RH  030%=      5-min Rain = 0
KOD1 112316Z 34019KT 05/M11 A3017 RMK A01 T00501112  RH  030%=      5-min Rain = 0
KOD1 112317Z 34018KT 05/M11 A3017 RMK A01 T00501112  RH  030%=      5-min Rain = 0
KOD1 112318Z 34020G26KT 05/M11 A3017 RMK A01 T00491112  RH  030%=      5-min Rain = 0
KOD1 112319Z 34018KT 05/M11 A3017 RMK A01 T00491112  RH  030%=      5-min Rain = 0
KOD1 112320Z 34022G27KT 05/M11 A3017 RMK A01 T00491112  RH  030%=      5-min Rain = 0
KOD1 112321Z 33024KT 05/M11 A3017 RMK A01 T00491112  RH  030%=      5-min Rain = 0
KOD1 112322Z 34024KT 05/M11 A3017 RMK A01 T00491112  RH  030%=      5-min Rain = 0
KOD1 112323Z 34023KT 05/M11 A3017 RMK A01 T00481112  RH  030%=      5-min Rain = 0
KOD1 112324Z 34021G27KT 05/M11 A3017 RMK A01 T00481112  RH  030%=      5-min Rain = 0
KOD1 112325Z 34018KT 05/M11 A3017 RMK A01 T00481112  RH  030%=      5-min Rain = 0
KOD1 112326Z 34018KT 05/M11 A3017 RMK A01 T00471112  RH  030%=      5-min Rain = 0
KOD1 112327Z 33015G20KT 05/M11 A3017 RMK A01 T00471112  RH  031%=      5-min Rain = 0
KOD1 112328Z 33019KT 05/M11 A3018 RMK A01 T00461111  RH  031%=      5-min Rain = 0
KOD1 112329Z 33016KT 05/M11 A3018 RMK A01 T00461111  RH  031%=      5-min Rain = 0
KOD1 112330Z 34019KT 05/M11 A3018 RMK A01 T00451111  RH  031%=      5-min Rain = 0
KOD1 112331Z 33017KT 05/M11 A3018 RMK A01 T00451111  RH  031%=      5-min Rain = 0
KOD1 112332Z 33018KT 04/M11 A3018 RMK A01 T00441111  RH  031%=      5-min Rain = 0
KOD1 112333Z 33019G24KT 04/M11 A3018 RMK A01 T00441111  RH  031%=      5-min Rain = 0
KOD1 112334Z 33019KT 04/M11 A3018 RMK A01 T00441111  RH  031%=      5-min Rain = 0
KOD1 112335Z 33023G28KT 04/M11 A3018 RMK A01 T00441111  RH  031%=      5-min Rain = 0
KOD1 112336Z 33021G26KT 04/M11 A3018 RMK A01 T00441112  RH  031%=      5-min Rain = 0
KOD1 112337Z 33021G29KT 04/M11 A3018 RMK A01 T00441112  RH  031%=      5-min Rain = 0
KOD1 112338Z 34019G27KT 04/M11 A3018 RMK A01 T00431112  RH  031%=      5-min Rain = 0
KOD1 112339Z 33021KT 04/M11 A3019 RMK A01 T00431112  RH  031%=      5-min Rain = 0
KOD1 112340Z 33021KT 04/M11 A3019 RMK A01 T00431112  RH  031%=      5-min Rain = 0
KOD1 112341Z 33020G25KT 04/M11 A3019 RMK A01 T00431112  RH  031%=      5-min Rain = 0
KOD1 112342Z 33019KT 04/M11 A3019 RMK A01 T00421112  RH  031%=      5-min Rain = 0
KOD1 112343Z 33018G23KT 04/M11 A3019 RMK A01 T00421112  RH  032%=      5-min Rain = 0
KOD1 112344Z 34019G24KT 04/M11 A3019 RMK A01 T00421112  RH  032%=      5-min Rain = 0
KOD1 112345Z 33016KT 04/M11 A3019 RMK A01 T00421112  RH  032%=      5-min Rain = 0
KOD1 112346Z 34019KT 04/M11 A3019 RMK A01 T00411112  RH  032%=      5-min Rain = 0
KOD1 112347Z 34016KT 04/M11 A3019 RMK A01 T00411112  RH  032%=      5-min Rain = 0
KOD1 112348Z 33015KT 04/M11 A3019 RMK A01 T00401112  RH  032%=      5-min Rain = 0
KOD1 112349Z 34014KT 04/M11 A3019 RMK A01 T00391112  RH  032%=      5-min Rain = 0
KOD1 112350Z 34013KT 04/M11 A3019 RMK A01 T00391112  RH  032%=      5-min Rain = 0
KOD1 112351Z 34014KT 04/M11 A3019 RMK A01 T00381112  RH  033%=      5-min Rain = 0
KOD1 112352Z 34014KT 04/M11 A3019 RMK A01 T00371112  RH  033%=      5-min Rain = 0
KOD1 112353Z 33017KT 04/M11 A3019 RMK A01 T00371111  RH  033%=      5-min Rain = 0
KOD1 112354Z 33015KT 04/M11 A302 RMK A01 T00371111  RH  033%=      5-min Rain = 0
KOD1 112355Z 33016KT 04/M11 A302 RMK A01 T00371111  RH  033%=      5-min Rain = 0
KOD1 112356Z 33015KT 04/M11 A302 RMK A01 T00361111  RH  033%=      5-min Rain = 0
KOD1 112357Z 33014KT 04/M11 A302 RMK A01 T00361111  RH  033%=      5-min Rain = 0
KOD1 112358Z 33016KT 04/M11 A302 RMK A01 T00361111  RH  033%=      5-min Rain = 0
KOD1 112359Z 34014KT 04/M11 A302 RMK A01 T00361111  RH  033%=      5-min Rain = 0
KOD1 120000Z 33012KT 04/M11 A302 RMK A01 T00361111  RH  033%=      5-min Rain = 0
KOD1 120001Z 33014KT 04/M11 A302 RMK A01 T00351111  RH  033%=      5-min Rain = 0
KOD1 120002Z 33013G18KT 04/M11 A302 RMK A01 T00351111  RH  033%=      5-min Rain = 0
KOD1 120003Z 34015KT 04/M11 A302 RMK A01 T00351111  RH  033%=      5-min Rain = 0
KOD1 120004Z 33015KT 04/M11 A302 RMK A01 T00351111  RH  033%=      5-min Rain = 0
KOD1 120005Z 33014KT 04/M11 A302 RMK A01 T00351111  RH  033%=      5-min Rain = 0
KOD1 120006Z 33014KT 04/M11 A302 RMK A01 T00351110  RH  034%=      5-min Rain = 0
KOD1 120007Z 33014KT 04/M11 A3021 RMK A01 T00351110  RH  034%=      5-min Rain = 0
KOD1 120008Z 33015G20KT 03/M11 A3021 RMK A01 T00341110  RH  034%=      5-min Rain = 0
KOD1 120009Z 33013KT 03/M11 A3021 RMK A01 T00341110  RH  034%=      5-min Rain = 0
KOD1 120010Z 33014KT 03/M11 A3021 RMK A01 T00341109  RH  034%=      5-min Rain = 0
KOD1 120011Z 33015KT 03/M11 A3021 RMK A01 T00341109  RH  034%=      5-min Rain = 0
KOD1 120012Z 33014KT 03/M11 A3021 RMK A01 T00341109  RH  034%=      5-min Rain = 0
KOD1 120013Z 33015KT 03/M11 A3021 RMK A01 T00331109  RH  034%=      5-min Rain = 0
KOD1 120014Z 33015G20KT 03/M11 A3021 RMK A01 T00331108  RH  035%=      5-min Rain = 0
KOD1 120015Z 33013KT 03/M11 A3021 RMK A01 T00331108  RH  035%=      5-min Rain = 0
KOD1 120016Z 33013KT 03/M11 A3022 RMK A01 T00321108  RH  035%=      5-min Rain = 0
KOD1 120017Z 33014KT 03/M11 A3021 RMK A01 T00321108  RH  035%=      5-min Rain = 0
KOD1 120018Z 33013KT 03/M11 A3021 RMK A01 T00311108  RH  035%=      5-min Rain = 0
KOD1 120019Z 33013KT 03/M11 A3021 RMK A01 T00311108  RH  035%=      5-min Rain = 0
KOD1 120020Z 33013KT 03/M11 A3021 RMK A01 T00311108  RH  035%=      5-min Rain = 0
KOD1 120021Z 33014KT 03/M11 A3021 RMK A01 T00301108  RH  035%=      5-min Rain = 0
KOD1 120022Z 33015KT 03/M11 A3022 RMK A01 T00311108  RH  035%=      5-min Rain = 0
KOD1 120023Z 33014KT 03/M11 A3022 RMK A01 T00311109  RH  035%=      5-min Rain = 0
KOD1 120024Z 33016KT 03/M11 A3022 RMK A01 T00301109  RH  035%=      5-min Rain = 0
KOD1 120025Z 34016KT 03/M11 A3022 RMK A01 T00311109  RH  035%=      5-min Rain = 0
KOD1 120026Z 33014KT 03/M11 A3022 RMK A01 T00311109  RH  035%=      5-min Rain = 0
KOD1 120027Z 33014G19KT 03/M11 A3022 RMK A01 T00301109  RH  035%=      5-min Rain = 0
KOD1 120028Z 33014KT 03/M11 A3022 RMK A01 T00301108  RH  035%=      5-min Rain = 0
KOD1 120029Z 33015KT 03/M11 A3022 RMK A01 T00291108  RH  036%=      5-min Rain = 0
KOD1 120030Z 33016KT 03/M11 A3022 RMK A01 T00291108  RH  036%=      5-min Rain = 0
KOD1 120031Z 34014KT 03/M11 A3022 RMK A01 T00291108  RH  036%=      5-min Rain = 0
KOD1 120032Z 34013KT 03/M11 A3022 RMK A01 T00291109  RH  036%=      5-min Rain = 0
KOD1 120033Z 34013G18KT 03/M11 A3022 RMK A01 T00291108  RH  036%=      5-min Rain = 0
KOD1 120034Z 34013KT 03/M11 A3023 RMK A01 T00281108  RH  036%=      5-min Rain = 0
KOD1 120035Z 34011KT 03/M11 A3023 RMK A01 T00281108  RH  036%=      5-min Rain = 0
KOD1 120036Z 33013KT 03/M11 A3023 RMK A01 T00271108  RH  036%=      5-min Rain = 0
KOD1 120037Z 34013KT 03/M11 A3023 RMK A01 T00271108  RH  036%=      5-min Rain = 0
KOD1 120038Z 33014KT 03/M11 A3023 RMK A01 T00261108  RH  037%=      5-min Rain = 0
KOD1 120039Z 34015KT 03/M11 A3023 RMK A01 T00261108  RH  037%=      5-min Rain = 0
KOD1 120040Z 34016KT 03/M11 A3023 RMK A01 T00261108  RH  037%=      5-min Rain = 0
KOD1 120041Z 34012G17KT 03/M11 A3023 RMK A01 T00261108  RH  037%=      5-min Rain = 0
KOD1 120042Z 33014KT 03/M11 A3023 RMK A01 T00261107  RH  037%=      5-min Rain = 0
KOD1 120043Z 34014KT 03/M11 A3023 RMK A01 T00251107  RH  037%=      5-min Rain = 0
KOD1 120044Z 33018KT 03/M11 A3023 RMK A01 T00251107  RH  037%=      5-min Rain = 0
KOD1 120045Z 33017KT 03/M11 A3023 RMK A01 T00261107  RH  037%=      5-min Rain = 0
KOD1 120046Z 33014KT 03/M11 A3023 RMK A01 T00261107  RH  037%=      5-min Rain = 0
KOD1 120047Z 33015G21KT 03/M11 A3023 RMK A01 T00261107  RH  037%=      5-min Rain = 0
KOD1 120048Z 33015KT 03/M11 A3023 RMK A01 T00261107  RH  037%=      5-min Rain = 0
KOD1 120049Z 33014KT 03/M11 A3023 RMK A01 T00261107  RH  037%=      5-min Rain = 0
KOD1 120050Z 33015KT 03/M11 A3023 RMK A01 T00251107  RH  037%=      5-min Rain = 0
KOD1 120051Z 33014KT 03/M11 A3023 RMK A01 T00261107  RH  037%=      5-min Rain = 0
KOD1 120052Z 33014KT 03/M11 A3023 RMK A01 T00251107  RH  037%=      5-min Rain = 0
KOD1 120053Z 33014KT 03/M11 A3023 RMK A01 T00251107  RH  037%=      5-min Rain = 0
KOD1 120054Z 34012KT 02/M11 A3023 RMK A01 T00241107  RH  037%=      5-min Rain = 0
KOD1 120055Z 33015KT 02/M11 A3023 RMK A01 T00231107  RH  038%=      5-min Rain = 0
KOD1 120056Z 33016KT 02/M11 A3023 RMK A01 T00231107  RH  038%=      5-min Rain = 0
KOD1 120057Z 33014KT 02/M11 A3023 RMK A01 T00231107  RH  038%=      5-min Rain = 0
KOD1 120058Z 33013KT 02/M11 A3023 RMK A01 T00231106  RH  038%=      5-min Rain = 0
KOD1 120059Z 33014KT 02/M11 A3023 RMK A01 T00221106  RH  038%=      5-min Rain = 0
KOD1 120100Z 34015KT 02/M11 A3023 RMK A01 T00221106  RH  038%=      5-min Rain = 0
KOD1 120101Z 34014KT 02/M11 A3023 RMK A01 T00221106  RH  038%=      5-min Rain = 0
KOD1 120102Z 34014KT 02/M11 A3023 RMK A01 T00221106  RH  038%=      5-min Rain = 0
KOD1 120103Z 34013KT 02/M11 A3023 RMK A01 T00221106  RH  038%=      5-min Rain = 0
KOD1 120104Z 34014KT 02/M11 A3023 RMK A01 T00221106  RH  038%=      5-min Rain = 0
KOD1 120105Z 34014KT 02/M11 A3023 RMK A01 T00221106  RH  038%=      5-min Rain = 0
KOD1 120106Z 34014KT 02/M11 A3024 RMK A01 T00221106  RH  038%=      5-min Rain = 0
KOD1 120107Z 34012KT 02/M11 A3024 RMK A01 T00221107  RH  038%=      5-min Rain = 0
KOD1 120108Z 34011KT 02/M11 A3024 RMK A01 T00211107  RH  038%=      5-min Rain = 0
KOD1 120109Z 34011KT 02/M11 A3024 RMK A01 T00201106  RH  039%=      5-min Rain = 0
KOD1 120110Z 34012KT 02/M11 A3024 RMK A01 T00201106  RH  039%=      5-min Rain = 0
KOD1 120111Z 34012KT 02/M11 A3024 RMK A01 T00191106  RH  039%=      5-min Rain = 0
KOD1 120112Z 34011KT 02/M11 A3024 RMK A01 T00191106  RH  039%=      5-min Rain = 0
KOD1 120113Z 34013KT 02/M11 A3024 RMK A01 T00191106  RH  039%=      5-min Rain = 0
KOD1 120114Z 34012KT 02/M11 A3024 RMK A01 T00191106  RH  039%=      5-min Rain = 0
KOD1 120115Z 34012KT 02/M11 A3024 RMK A01 T00191106  RH  039%=      5-min Rain = 0
KOD1 120116Z 34012KT 02/M11 A3025 RMK A01 T00181106  RH  039%=      5-min Rain = 0
KOD1 120117Z 34011KT 02/M11 A3025 RMK A01 T00181106  RH  039%=      5-min Rain = 0
KOD1 120118Z 34013KT 02/M11 A3025 RMK A01 T00181106  RH  039%=      5-min Rain = 0
KOD1 120119Z 34014KT 02/M11 A3025 RMK A01 T00181106  RH  039%=      5-min Rain = 0
KOD1 120120Z 34014KT 02/M11 A3025 RMK A01 T00181106  RH  039%=      5-min Rain = 0
KOD1 120121Z 34012KT 02/M11 A3025 RMK A01 T00181106  RH  039%=      5-min Rain = 0
KOD1 120122Z 34014KT 02/M11 A3025 RMK A01 T00181106  RH  039%=      5-min Rain = 0
KOD1 120123Z 34014KT 02/M11 A3025 RMK A01 T00181106  RH  039%=      5-min Rain = 0
KOD1 120124Z 34015KT 02/M11 A3025 RMK A01 T00181106  RH  039%=      5-min Rain = 0
KOD1 120125Z 34014KT 02/M11 A3025 RMK A01 T00181106  RH  039%=      5-min Rain = 0
KOD1 120126Z 34014KT 02/M11 A3025 RMK A01 T00171106  RH  040%=      5-min Rain = 0
KOD1 120127Z 34012KT 02/M11 A3025 RMK A01 T00171106  RH  040%=      5-min Rain = 0
KOD1 120128Z 34012KT 02/M11 A3025 RMK A01 T00161106  RH  040%=      5-min Rain = 0
KOD1 120129Z 34012KT 02/M11 A3026 RMK A01 T00161106  RH  040%=      5-min Rain = 0
KOD1 120130Z 34013KT 02/M11 A3026 RMK A01 T00151105  RH  040%=      5-min Rain = 0
KOD1 120131Z 34012KT 02/M11 A3026 RMK A01 T00151105  RH  040%=      5-min Rain = 0
KOD1 120132Z 34013KT 02/M11 A3026 RMK A01 T00151105  RH  041%=      5-min Rain = 0
KOD1 120133Z 34013KT 02/M11 A3026 RMK A01 T00151105  RH  041%=      5-min Rain = 0
KOD1 120134Z 34013KT 02/M11 A3026 RMK A01 T00151105  RH  040%=      5-min Rain = 0
KOD1 120135Z 34013KT 02/M11 A3026 RMK A01 T00151105  RH  040%=      5-min Rain = 0
KOD1 120136Z 34013KT 02/M11 A3026 RMK A01 T00151105  RH  040%=      5-min Rain = 0
KOD1 120137Z 34013KT 02/M11 A3026 RMK A01 T00151105  RH  040%=      5-min Rain = 0
KOD1 120138Z 34013KT 02/M11 A3026 RMK A01 T00151105  RH  040%=      5-min Rain = 0
KOD1 120139Z 34012KT 02/M11 A3026 RMK A01 T00151105  RH  041%=      5-min Rain = 0
KOD1 120140Z 34012KT 01/M11 A3026 RMK A01 T00141105  RH  041%=      5-min Rain = 0
KOD1 120141Z 34012KT 01/M11 A3026 RMK A01 T00141105  RH  041%=      5-min Rain = 0
KOD1 120142Z 34013KT 01/M11 A3026 RMK A01 T00131105  RH  041%=      5-min Rain = 0
KOD1 120143Z 34014KT 01/M11 A3026 RMK A01 T00131105  RH  041%=      5-min Rain = 0
KOD1 120144Z 34013KT 01/M11 A3026 RMK A01 T00131105  RH  041%=      5-min Rain = 0
KOD1 120145Z 34013KT 01/M11 A3026 RMK A01 T00131105  RH  041%=      5-min Rain = 0
KOD1 120146Z 34013KT 01/M11 A3026 RMK A01 T00131105  RH  041%=      5-min Rain = 0
KOD1 120147Z 34013KT 01/M11 A3026 RMK A01 T00131105  RH  041%=      5-min Rain = 0
KOD1 120148Z 34014KT 01/M11 A3026 RMK A01 T00131105  RH  041%=      5-min Rain = 0
KOD1 120149Z 34012KT 01/M11 A3026 RMK A01 T00131105  RH  041%=      5-min Rain = 0
KOD1 120150Z 34013KT 01/M11 A3026 RMK A01 T00121105  RH  041%=      5-min Rain = 0
KOD1 120151Z 34012KT 01/M11 A3026 RMK A01 T00121105  RH  042%=      5-min Rain = 0
KOD1 120152Z 34013KT 01/M11 A3026 RMK A01 T00121105  RH  042%=      5-min Rain = 0
KOD1 120153Z 34014KT 01/M11 A3026 RMK A01 T00121105  RH  042%=      5-min Rain = 0
KOD1 120154Z 33014KT 01/M11 A3026 RMK A01 T00121105  RH  042%=      5-min Rain = 0
KOD1 120155Z 34016G21KT 01/M11 A3026 RMK A01 T00121105  RH  041%=      5-min Rain = 0
KOD1 120156Z 34014KT 01/M11 A3026 RMK A01 T00121105  RH  041%=      5-min Rain = 0
KOD1 120157Z 34017KT 01/M11 A3026 RMK A01 T00131105  RH  041%=      5-min Rain = 0
KOD1 120158Z 34016KT 01/M11 A3026 RMK A01 T00131105  RH  041%=      5-min Rain = 0
KOD1 120159Z 33016KT 01/M11 A3026 RMK A01 T00141105  RH  041%=      5-min Rain = 0
KOD1 120200Z 34015KT 01/M11 A3026 RMK A01 T00141105  RH  041%=      5-min Rain = 0
KOD1 120201Z 34020KT 02/M11 A3026 RMK A01 T00151105  RH  041%=      5-min Rain = 0
KOD1 120202Z 34017G23KT 02/M11 A3027 RMK A01 T00161105  RH  040%=      5-min Rain = 0
KOD1 120203Z 34016KT 02/M11 A3027 RMK A01 T00161105  RH  040%=      5-min Rain = 0
KOD1 120204Z 34016KT 02/M11 A3027 RMK A01 T00161105  RH  040%=      5-min Rain = 0
KOD1 120205Z 34017G24KT 02/M11 A3027 RMK A01 T00161105  RH  040%=      5-min Rain = 0
KOD1 120206Z 34017KT 02/M11 A3027 RMK A01 T00161105  RH  040%=      5-min Rain = 0
KOD1 120207Z 34017G22KT 02/M11 A3027 RMK A01 T00161105  RH  040%=      5-min Rain = 0
KOD1 120208Z 34016G21KT 02/M11 A3027 RMK A01 T00171105  RH  040%=      5-min Rain = 0
KOD1 120209Z 34016KT 02/M11 A3027 RMK A01 T00161105  RH  040%=      5-min Rain = 0
KOD1 120210Z 34019KT 02/M11 A3027 RMK A01 T00161105  RH  040%=      5-min Rain = 0
KOD1 120211Z 34016KT 02/M11 A3027 RMK A01 T00161105  RH  040%=      5-min Rain = 0
KOD1 120212Z 34014G19KT 02/M11 A3027 RMK A01 T00161105  RH  040%=      5-min Rain = 0
KOD1 120213Z 34012KT 02/M11 A3027 RMK A01 T00151105  RH  040%=      5-min Rain = 0
KOD1 120214Z 34016G23KT 01/M11 A3027 RMK A01 T00141105  RH  041%=      5-min Rain = 0
KOD1 120215Z 34017KT 01/M11 A3027 RMK A01 T00141105  RH  041%=      5-min Rain = 0
KOD1 120216Z 34015KT 01/M11 A3027 RMK A01 T00141105  RH  041%=      5-min Rain = 0
KOD1 120217Z 34014KT 01/M11 A3027 RMK A01 T00141105  RH  041%=      5-min Rain = 0
KOD1 120218Z 34013KT 01/M11 A3027 RMK A01 T00141105  RH  041%=      5-min Rain = 0
KOD1 120219Z 34014KT 01/M11 A3027 RMK A01 T00131105  RH  041%=      5-min Rain = 0
KOD1 120220Z 34015G20KT 01/M11 A3028 RMK A01 T00131105  RH  041%=      5-min Rain = 0
KOD1 120221Z 34016G21KT 01/M11 A3028 RMK A01 T00131105  RH  041%=      5-min Rain = 0
KOD1 120222Z 34018KT 01/M11 A3028 RMK A01 T00131105  RH  041%=      5-min Rain = 0
KOD1 120223Z 34014KT 01/M11 A3028 RMK A01 T00131105  RH  041%=      5-min Rain = 0
KOD1 120224Z 34017KT 01/M11 A3028 RMK A01 T00131105  RH  041%=      5-min Rain = 0
KOD1 120225Z 35020KT 01/M11 A3028 RMK A01 T00131105  RH  041%=      5-min Rain = 0
KOD1 120226Z 34016G21KT 01/M11 A3028 RMK A01 T00131105  RH  041%=      5-min Rain = 0
KOD1 120227Z 34020KT 01/M11 A3028 RMK A01 T00131105  RH  041%=      5-min Rain = 0
KOD1 120228Z 34017KT 01/M11 A3028 RMK A01 T00131105  RH  041%=      5-min Rain = 0
KOD1 120229Z 34017KT 01/M11 A3028 RMK A01 T00131105  RH  041%=      5-min Rain = 0
KOD1 120230Z 34016KT 01/M11 A3028 RMK A01 T00131105  RH  041%=      5-min Rain = 0
KOD1 120231Z 34016KT 01/M11 A3028 RMK A01 T00121105  RH  041%=      5-min Rain = 0
KOD1 120232Z 34014KT 01/M11 A3028 RMK A01 T00121105  RH  041%=      5-min Rain = 0
KOD1 120233Z 34015KT 01/M11 A3028 RMK A01 T00111105  RH  042%=      5-min Rain = 0
KOD1 120234Z 34015KT 01/M11 A3029 RMK A01 T00111105  RH  042%=      5-min Rain = 0
KOD1 120235Z 34014KT 01/M11 A3029 RMK A01 T00101105  RH  042%=      5-min Rain = 0
KOD1 120236Z 34015KT 01/M11 A3029 RMK A01 T00101105  RH  042%=      5-min Rain = 0
KOD1 120237Z 34017KT 01/M11 A3029 RMK A01 T00101105  RH  042%=      5-min Rain = 0
KOD1 120238Z 34015KT 01/M11 A3029 RMK A01 T00101105  RH  042%=      5-min Rain = 0
KOD1 120239Z 34014G19KT 01/M11 A3029 RMK A01 T00091105  RH  042%=      5-min Rain = 0
KOD1 120240Z 34016KT 01/M11 A3028 RMK A01 T00091105  RH  042%=      5-min Rain = 0
KOD1 120241Z 34014KT 01/M11 A3028 RMK A01 T00091105  RH  042%=      5-min Rain = 0
KOD1 120242Z 34017KT 01/M11 A3028 RMK A01 T00091105  RH  042%=      5-min Rain = 0
KOD1 120243Z 34014KT 01/M11 A3028 RMK A01 T00091105  RH  042%=      5-min Rain = 0
KOD1 120244Z 34013KT 01/M11 A3029 RMK A01 T00081105  RH  042%=      5-min Rain = 0
KOD1 120245Z 34014G19KT 01/M11 A3029 RMK A01 T00071105  RH  043%=      5-min Rain = 0
KOD1 120246Z 34016KT 01/M11 A3029 RMK A01 T00071105  RH  043%=      5-min Rain = 0
KOD1 120247Z 34013KT 01/M11 A3029 RMK A01 T00071105  RH  043%=      5-min Rain = 0
KOD1 120248Z 34015KT 01/M11 A3029 RMK A01 T00071105  RH  043%=      5-min Rain = 0
KOD1 120249Z 34016KT 01/M11 A3029 RMK A01 T00071105  RH  043%=      5-min Rain = 0
KOD1 120250Z 34014G19KT 01/M11 A3029 RMK A01 T00071105  RH  043%=      5-min Rain = 0
KOD1 120251Z 34016KT 01/M11 A3029 RMK A01 T00071105  RH  043%=      5-min Rain = 0
KOD1 120252Z 34013KT 01/M11 A3029 RMK A01 T00061105  RH  043%=      5-min Rain = 0
KOD1 120253Z 34014KT 01/M11 A3029 RMK A01 T00061105  RH  043%=      5-min Rain = 0
KOD1 120254Z 34016G21KT 01/M11 A3029 RMK A01 T00061105  RH  043%=      5-min Rain = 0
KOD1 120255Z 34015KT 01/M11 A3029 RMK A01 T00061105  RH  043%=      5-min Rain = 0
KOD1 120256Z 34015KT 01/M11 A3029 RMK A01 T00061105  RH  043%=      5-min Rain = 0
KOD1 120257Z 34016KT 01/M11 A3029 RMK A01 T00061105  RH  043%=      5-min Rain = 0
KOD1 120258Z 35014KT 01/M11 A3029 RMK A01 T00061106  RH  043%=      5-min Rain = 0
KOD1 120259Z 34014G20KT 01/M11 A3029 RMK A01 T00051105  RH  043%=      5-min Rain = 0
KOD1 120300Z 35015KT 01/M11 A3029 RMK A01 T00051106  RH  043%=      5-min Rain = 0
KOD1 120301Z 35013KT 01/M11 A3029 RMK A01 T00051106  RH  043%=      5-min Rain = 0
KOD1 120302Z 35014KT 00/M11 A3029 RMK A01 T00041106  RH  043%=      5-min Rain = 0
KOD1 120303Z 35015KT 00/M11 A3029 RMK A01 T00041106  RH  044%=      5-min Rain = 0
KOD1 120304Z 34016KT 00/M11 A3029 RMK A01 T00041106  RH  044%=      5-min Rain = 0
KOD1 120305Z 34016KT 00/M11 A303 RMK A01 T00041106  RH  043%=      5-min Rain = 0
KOD1 120306Z 34014KT 00/M11 A303 RMK A01 T00041106  RH  043%=      5-min Rain = 0
KOD1 120307Z 35014KT 00/M11 A303 RMK A01 T00041106  RH  043%=      5-min Rain = 0
KOD1 120308Z 35013KT 00/M11 A303 RMK A01 T00031106  RH  044%=      5-min Rain = 0
KOD1 120309Z 35013G18KT 00/M11 A303 RMK A01 T00031106  RH  044%=      5-min Rain = 0
KOD1 120310Z 34014KT 00/M11 A303 RMK A01 T00021106  RH  044%=      5-min Rain = 0
KOD1 120311Z 35014KT 00/M11 A303 RMK A01 T00021106  RH  044%=      5-min Rain = 0
KOD1 120312Z 35013KT 00/M11 A303 RMK A01 T00021107  RH  044%=      5-min Rain = 0
KOD1 120313Z 35014KT 00/M11 A303 RMK A01 T00021106  RH  044%=      5-min Rain = 0
KOD1 120314Z 35013KT 00/M11 A303 RMK A01 T00021106  RH  044%=      5-min Rain = 0
KOD1 120315Z 35012KT 00/M11 A303 RMK A01 T00021106  RH  044%=      5-min Rain = 0
KOD1 120316Z 35013KT 00/M11 A303 RMK A01 T00011106  RH  044%=      5-min Rain = 0
KOD1 120317Z 36012KT 00/M11 A303 RMK A01 T00011106  RH  044%=      5-min Rain = 0
KOD1 120318Z 36011KT 00/11 A303 RMK A01 T00000-106  RH  045%=      5-min Rain = 0
KOD1 120319Z 36011KT 00/11 A303 RMK A01 T00-00-106  RH  045%=      5-min Rain = 0
KOD1 120320Z 36014KT M00/M11 A303 RMK A01 T10011105  RH  045%=      5-min Rain = 0
KOD1 120321Z 35013KT M00/M11 A303 RMK A01 T10011105  RH  045%=      5-min Rain = 0
KOD1 120322Z 35015KT M00/M11 A303 RMK A01 T10011105  RH  045%=      5-min Rain = 0
KOD1 120323Z 35015KT M00/M11 A303 RMK A01 T10011105  RH  045%=      5-min Rain = 0
KOD1 120324Z 35012KT 00/11 A3031 RMK A01 T00-00-105  RH  045%=      5-min Rain = 0
KOD1 120325Z 35013KT M00/M11 A3031 RMK A01 T10011105  RH  045%=      5-min Rain = 0
KOD1 120326Z 35012KT M00/M11 A3031 RMK A01 T10011105  RH  045%=      5-min Rain = 0
KOD1 120327Z 35013KT M00/M11 A3031 RMK A01 T10021106  RH  045%=      5-min Rain = 0
KOD1 120328Z 35013KT M00/M11 A3031 RMK A01 T10021106  RH  046%=      5-min Rain = 0
KOD1 120329Z 35013KT M00/M11 A3031 RMK A01 T10021106  RH  046%=      5-min Rain = 0
KOD1 120330Z 36013KT M00/M11 A3031 RMK A01 T10031106  RH  046%=      5-min Rain = 0
KOD1 120331Z 35012KT M00/M11 A3031 RMK A01 T10031106  RH  046%=      5-min Rain = 0
KOD1 120332Z 35013KT M00/M11 A3031 RMK A01 T10031106  RH  046%=      5-min Rain = 0
KOD1 120333Z 35012KT M00/M11 A3031 RMK A01 T10031106  RH  046%=      5-min Rain = 0
KOD1 120334Z 35013KT M00/M11 A3031 RMK A01 T10041106  RH  046%=      5-min Rain = 0
KOD1 120335Z 34012KT M00/M11 A3031 RMK A01 T10041106  RH  046%=      5-min Rain = 0
KOD1 120336Z 35011KT M00/M11 A3031 RMK A01 T10041106  RH  046%=      5-min Rain = 0
KOD1 120337Z 35012KT M00/M11 A3031 RMK A01 T10041106  RH  046%=      5-min Rain = 0
KOD1 120338Z 35011KT M01/M11 A3031 RMK A01 T10051106  RH  046%=      5-min Rain = 0
KOD1 120339Z 35011KT M01/M11 A3031 RMK A01 T10051106  RH  046%=      5-min Rain = 0
KOD1 120340Z 34012KT M01/M11 A3032 RMK A01 T10061106  RH  047%=      5-min Rain = 0
KOD1 120341Z 35011KT M01/M11 A3032 RMK A01 T10061106  RH  047%=      5-min Rain = 0
KOD1 120342Z 35011KT M01/M11 A3032 RMK A01 T10061106  RH  047%=      5-min Rain = 0
KOD1 120343Z 35011KT M01/M11 A3032 RMK A01 T10071106  RH  047%=      5-min Rain = 0
KOD1 120344Z 35012KT M01/M11 A3032 RMK A01 T10071105  RH  047%=      5-min Rain = 0
KOD1 120345Z 35011KT M01/M11 A3032 RMK A01 T10071106  RH  047%=      5-min Rain = 0
KOD1 120346Z 34010KT M01/M11 A3032 RMK A01 T10071105  RH  047%=      5-min Rain = 0
KOD1 120347Z 34009KT M01/M11 A3032 RMK A01 T10081106  RH  048%=      5-min Rain = 0
KOD1 120348Z 34010KT M01/M11 A3032 RMK A01 T10091106  RH  048%=      5-min Rain = 0
KOD1 120349Z 34011KT M01/M11 A3032 RMK A01 T10091105  RH  048%=      5-min Rain = 0
KOD1 120350Z 34011KT M01/M11 A3032 RMK A01 T10091105  RH  048%=      5-min Rain = 0
KOD1 120351Z 34010KT M01/M11 A3032 RMK A01 T10091105  RH  048%=      5-min Rain = 0
KOD1 120352Z 34011KT M01/M11 A3032 RMK A01 T10091106  RH  048%=      5-min Rain = 0
KOD1 120353Z 34010KT M01/M11 A3032 RMK A01 T10091105  RH  048%=      5-min Rain = 0
KOD1 120354Z 34011KT M01/M11 A3032 RMK A01 T10091106  RH  048%=      5-min Rain = 0
KOD1 120355Z 35013KT M01/M11 A3032 RMK A01 T10091106  RH  048%=      5-min Rain = 0
KOD1 120356Z 34011KT M01/M11 A3032 RMK A01 T10091106  RH  048%=      5-min Rain = 0
KOD1 120357Z 35011KT M01/M11 A3032 RMK A01 T10081106  RH  048%=      5-min Rain = 0
KOD1 120358Z 34009KT M01/M11 A3033 RMK A01 T10081106  RH  047%=      5-min Rain = 0
KOD1 120359Z 34010KT M01/M11 A3033 RMK A01 T10091106  RH  048%=      5-min Rain = 0
KOD1 120400Z 34009KT M01/M11 A3033 RMK A01 T10091106  RH  048%=      5-min Rain = 0
KOD1 120401Z 34011KT M01/M11 A3033 RMK A01 T10091107  RH  048%=      5-min Rain = 0
KOD1 120402Z 34011KT M01/M11 A3033 RMK A01 T10091107  RH  048%=      5-min Rain = 0
KOD1 120403Z 34010KT M01/M11 A3033 RMK A01 T10091107  RH  048%=      5-min Rain = 0
KOD1 120404Z 34010KT M01/M11 A3033 RMK A01 T10091107  RH  047%=      5-min Rain = 0
KOD1 120405Z 34012KT M01/M11 A3033 RMK A01 T10091107  RH  048%=      5-min Rain = 0
KOD1 120406Z 34010KT M01/M11 A3033 RMK A01 T10091107  RH  047%=      5-min Rain = 0
KOD1 120407Z 34010KT M01/M11 A3033 RMK A01 T10091107  RH  047%=      5-min Rain = 0
KOD1 120408Z 34010KT M01/M11 A3033 RMK A01 T10101107  RH  047%=      5-min Rain = 0
KOD1 120409Z 34010KT M01/M11 A3033 RMK A01 T10101107  RH  048%=      5-min Rain = 0
KOD1 120410Z 34009KT M01/M11 A3033 RMK A01 T10111108  RH  048%=      5-min Rain = 0
KOD1 120411Z 34008KT M01/M11 A3033 RMK A01 T10111108  RH  048%=      5-min Rain = 0
KOD1 120412Z 34011KT M01/M11 A3033 RMK A01 T10121107  RH  048%=      5-min Rain = 0
KOD1 120413Z 34010KT M01/M11 A3033 RMK A01 T10111107  RH  048%=      5-min Rain = 0
KOD1 120414Z 34010KT M01/M11 A3033 RMK A01 T10121108  RH  048%=      5-min Rain = 0
KOD1 120415Z 34010KT M01/M11 A3033 RMK A01 T10121108  RH  048%=      5-min Rain = 0
KOD1 120416Z 34010KT M01/M11 A3033 RMK A01 T10131108  RH  048%=      5-min Rain = 0
KOD1 120417Z 34009KT M01/M11 A3033 RMK A01 T10131108  RH  048%=      5-min Rain = 0
KOD1 120418Z 34009KT M01/M11 A3033 RMK A01 T10131108  RH  048%=      5-min Rain = 0
KOD1 120419Z 34008KT M01/M11 A3033 RMK A01 T10141108  RH  049%=      5-min Rain = 0
KOD1 120420Z 34009KT M01/M11 A3033 RMK A01 T10141108  RH  049%=      5-min Rain = 0
KOD1 120421Z 34009KT M02/M11 A3033 RMK A01 T10151108  RH  049%=      5-min Rain = 0
KOD1 120422Z 34009KT M02/M11 A3033 RMK A01 T10151108  RH  049%=      5-min Rain = 0
KOD1 120423Z 34008KT M02/M11 A3033 RMK A01 T10151108  RH  049%=      5-min Rain = 0
KOD1 120424Z 34008KT M02/M11 A3033 RMK A01 T10161108  RH  049%=      5-min Rain = 0
KOD1 120425Z 34009KT M02/M11 A3033 RMK A01 T10171108  RH  050%=      5-min Rain = 0
KOD1 120426Z 34008KT M02/M11 A3034 RMK A01 T10171108  RH  050%=      5-min Rain = 0
KOD1 120427Z 35009KT M02/M11 A3034 RMK A01 T10181108  RH  050%=      5-min Rain = 0
KOD1 120428Z 34009KT M02/M11 A3034 RMK A01 T10181108  RH  050%=      5-min Rain = 0
KOD1 120429Z 34009KT M02/M11 A3034 RMK A01 T10191108  RH  051%=      5-min Rain = 0
KOD1 120430Z 34011KT M02/M11 A3034 RMK A01 T10181108  RH  050%=      5-min Rain = 0
KOD1 120431Z 35009KT M02/M11 A3034 RMK A01 T10181109  RH  050%=      5-min Rain = 0
KOD1 120432Z 35009KT M02/M11 A3034 RMK A01 T10181109  RH  050%=      5-min Rain = 0
KOD1 120433Z 35009KT M02/M11 A3034 RMK A01 T10181109  RH  050%=      5-min Rain = 0
KOD1 120434Z 35011KT M02/M11 A3034 RMK A01 T10191109  RH  050%=      5-min Rain = 0
KOD1 120435Z 35010KT M02/M11 A3034 RMK A01 T10191109  RH  050%=      5-min Rain = 0
KOD1 120436Z 35010KT M02/M11 A3034 RMK A01 T10191109  RH  050%=      5-min Rain = 0
KOD1 120437Z 35010KT M02/M11 A3034 RMK A01 T10201110  RH  050%=      5-min Rain = 0
KOD1 120438Z 35010KT M02/M11 A3034 RMK A01 T10201110  RH  050%=      5-min Rain = 0
KOD1 120439Z 35010KT M02/M11 A3033 RMK A01 T10201110  RH  050%=      5-min Rain = 0
KOD1 120440Z 35011KT M02/M11 A3034 RMK A01 T10201110  RH  050%=      5-min Rain = 0
KOD1 120441Z 35013KT M02/M11 A3034 RMK A01 T10201110  RH  050%=      5-min Rain = 0
KOD1 120442Z 35010KT M02/M11 A3034 RMK A01 T10191110  RH  050%=      5-min Rain = 0
KOD1 120443Z 35011KT M02/M11 A3034 RMK A01 T10191110  RH  050%=      5-min Rain = 0
KOD1 120444Z 35011KT M02/M11 A3034 RMK A01 T10201111  RH  050%=      5-min Rain = 0
KOD1 120445Z 35011KT M02/M11 A3034 RMK A01 T10201111  RH  050%=      5-min Rain = 0
KOD1 120446Z 35012KT M02/M11 A3034 RMK A01 T10211111  RH  050%=      5-min Rain = 0
KOD1 120447Z 35011KT M02/M11 A3034 RMK A01 T10211111  RH  050%=      5-min Rain = 0
KOD1 120448Z 35011KT M02/M11 A3034 RMK A01 T10211111  RH  050%=      5-min Rain = 0
KOD1 120449Z 35011KT M02/M11 A3033 RMK A01 T10211111  RH  050%=      5-min Rain = 0
KOD1 120450Z 35010KT M02/M11 A3033 RMK A01 T10221111  RH  050%=      5-min Rain = 0
KOD1 120451Z 35010KT M02/M11 A3034 RMK A01 T10231111  RH  051%=      5-min Rain = 0
KOD1 120452Z 35010KT M02/M11 A3034 RMK A01 T10241111  RH  051%=      5-min Rain = 0
KOD1 120453Z 35009KT M02/M11 A3034 RMK A01 T10241111  RH  051%=      5-min Rain = 0
KOD1 120454Z 35010KT M03/M11 A3033 RMK A01 T10251111  RH  052%=      5-min Rain = 0
KOD1 120455Z 35009KT M03/M11 A3033 RMK A01 T10261111  RH  052%=      5-min Rain = 0
KOD1 120456Z 35010KT M03/M11 A3033 RMK A01 T10261111  RH  052%=      5-min Rain = 0
KOD1 120457Z 35010KT M03/M11 A3033 RMK A01 T10271111  RH  052%=      5-min Rain = 0
KOD1 120458Z 36009KT M03/M11 A3033 RMK A01 T10271111  RH  052%=      5-min Rain = 0
KOD1 120459Z 36009KT M03/M11 A3033 RMK A01 T10271111  RH  052%=      5-min Rain = 0
KOD1 120500Z 36008KT M03/M11 A3033 RMK A01 T10281111  RH  053%=      5-min Rain = 0
KOD1 120501Z 35009KT M03/M11 A3034 RMK A01 T10281112  RH  053%=      5-min Rain = 0
KOD1 120502Z 35009KT M03/M11 A3034 RMK A01 T10291112  RH  053%=      5-min Rain = 0
KOD1 120503Z 35009KT M03/M11 A3034 RMK A01 T10291111  RH  053%=      5-min Rain = 0
KOD1 120504Z 35010KT M03/M11 A3034 RMK A01 T10291112  RH  053%=      5-min Rain = 0
KOD1 120505Z 35010KT M03/M11 A3034 RMK A01 T10281112  RH  053%=      5-min Rain = 0
KOD1 120506Z 35011KT M03/M11 A3034 RMK A01 T10281112  RH  052%=      5-min Rain = 0
KOD1 120507Z 35011KT M03/M11 A3034 RMK A01 T10271112  RH  052%=      5-min Rain = 0
KOD1 120508Z 35010KT M03/M11 A3034 RMK A01 T10271112  RH  052%=      5-min Rain = 0
KOD1 120509Z 35011KT M03/M11 A3034 RMK A01 T10271112  RH  052%=      5-min Rain = 0
KOD1 120510Z 35012KT M03/M11 A3034 RMK A01 T10271113  RH  052%=      5-min Rain = 0
KOD1 120511Z 35011KT M03/M11 A3034 RMK A01 T10261113  RH  051%=      5-min Rain = 0
KOD1 120512Z 36011KT M03/M11 A3034 RMK A01 T10261113  RH  051%=      5-min Rain = 0
KOD1 120513Z 36012KT M03/M11 A3034 RMK A01 T10261113  RH  051%=      5-min Rain = 0
KOD1 120514Z 35010KT M03/M11 A3034 RMK A01 T10251113  RH  051%=      5-min Rain = 0
KOD1 120515Z 00010KT M03/M11 A3034 RMK A01 T10261113  RH  051%=      5-min Rain = 0
KOD1 120516Z 36010KT M03/M11 A3034 RMK A01 T10261113  RH  051%=      5-min Rain = 0
KOD1 120517Z 00012KT M03/M11 A3033 RMK A01 T10261113  RH  051%=      5-min Rain = 0
KOD1 120518Z 36012KT M03/M11 A3034 RMK A01 T10261114  RH  051%=      5-min Rain = 0
KOD1 120519Z 36011KT M03/M11 A3033 RMK A01 T10251114  RH  051%=      5-min Rain = 0
KOD1 120520Z 00011KT M03/M11 A3033 RMK A01 T10251114  RH  050%=      5-min Rain = 0
KOD1 120521Z 00011KT M03/M11 A3033 RMK A01 T10251114  RH  050%=      5-min Rain = 0
KOD1 120522Z 36014KT M03/M11 A3033 RMK A01 T10251114  RH  050%=      5-min Rain = 0
KOD1 120523Z 00015KT M02/M12 A3034 RMK A01 T10241115  RH  050%=      5-min Rain = 0
KOD1 120524Z 00011KT M02/M12 A3034 RMK A01 T10231115  RH  049%=      5-min Rain = 0
KOD1 120525Z 00013KT M02/M12 A3034 RMK A01 T10231115  RH  049%=      5-min Rain = 0
KOD1 120526Z 36011KT M02/M12 A3034 RMK A01 T10231115  RH  049%=      5-min Rain = 0
KOD1 120527Z 36013KT M02/M12 A3034 RMK A01 T10231115  RH  049%=      5-min Rain = 0
KOD1 120528Z 01010KT M02/M12 A3034 RMK A01 T10241116  RH  049%=      5-min Rain = 0
KOD1 120529Z 00011KT M02/M12 A3034 RMK A01 T10241116  RH  049%=      5-min Rain = 0
KOD1 120530Z 00012KT M02/M12 A3034 RMK A01 T10241116  RH  049%=      5-min Rain = 0
KOD1 120531Z 00011KT M02/M12 A3034 RMK A01 T10241116  RH  049%=      5-min Rain = 0
KOD1 120532Z 00013KT M02/M12 A3034 RMK A01 T10241116  RH  049%=      5-min Rain = 0
KOD1 120533Z 01012KT M02/M12 A3034 RMK A01 T10241116  RH  049%=      5-min Rain = 0
KOD1 120534Z 01013KT M03/M12 A3033 RMK A01 T10251116  RH  049%=      5-min Rain = 0
KOD1 120535Z 01012KT M03/M12 A3033 RMK A01 T10251116  RH  050%=      5-min Rain = 0
KOD1 120536Z 01011KT M03/M12 A3033 RMK A01 T10251116  RH  050%=      5-min Rain = 0
KOD1 120537Z 01011KT M03/M12 A3033 RMK A01 T10261116  RH  050%=      5-min Rain = 0
KOD1 120538Z 01011KT M03/M12 A3033 RMK A01 T10271116  RH  050%=      5-min Rain = 0
KOD1 120539Z 01011KT M03/M12 A3033 RMK A01 T10271116  RH  050%=      5-min Rain = 0
KOD1 120540Z 01011KT M03/M12 A3032 RMK A01 T10281116  RH  051%=      5-min Rain = 0
KOD1 120541Z 01011KT M03/M12 A3032 RMK A01 T10291116  RH  051%=      5-min Rain = 0
KOD1 120542Z 01010KT M03/M12 A3033 RMK A01 T10291116  RH  051%=      5-min Rain = 0
KOD1 120543Z 01011KT M03/M12 A3033 RMK A01 T10291116  RH  051%=      5-min Rain = 0
KOD1 120544Z 01010KT M03/M12 A3033 RMK A01 T10301116  RH  051%=      5-min Rain = 0
KOD1 120545Z 01011KT M03/M12 A3033 RMK A01 T10301116  RH  052%=      5-min Rain = 0
KOD1 120546Z 01010KT M03/M12 A3032 RMK A01 T10311116  RH  052%=      5-min Rain = 0
KOD1 120547Z 01009KT M03/M12 A3032 RMK A01 T10321116  RH  052%=      5-min Rain = 0
KOD1 120548Z 01010KT M03/M12 A3032 RMK A01 T10331116  RH  052%=      5-min Rain = 0
KOD1 120549Z 01011KT M03/M12 A3032 RMK A01 T10331116  RH  053%=      5-min Rain = 0
KOD1 120550Z 01010KT M03/M12 A3032 RMK A01 T10331116  RH  053%=      5-min Rain = 0
KOD1 120551Z 01010KT M03/M12 A3032 RMK A01 T10341116  RH  053%=      5-min Rain = 0
KOD1 120552Z 00010KT M04/M12 A3032 RMK A01 T10351116  RH  053%=      5-min Rain = 0
KOD1 120553Z 01010KT M04/M12 A3032 RMK A01 T10351116  RH  054%=      5-min Rain = 0
KOD1 120554Z 00010KT M04/M12 A3032 RMK A01 T10351116  RH  054%=      5-min Rain = 0
KOD1 120555Z 36010KT M04/M12 A3032 RMK A01 T10351116  RH  053%=      5-min Rain = 0
KOD1 120556Z 00009KT M04/M12 A3033 RMK A01 T10351116  RH  054%=      5-min Rain = 0
KOD1 120557Z 36009KT M04/M12 A3033 RMK A01 T10351116  RH  054%=      5-min Rain = 0
KOD1 120558Z 00009KT M04/M12 A3033 RMK A01 T10361116  RH  054%=      5-min Rain = 0
KOD1 120559Z 00010KT M04/M12 A3033 RMK A01 T10361116  RH  054%=      5-min Rain = 0

Page generated in 0.0386 seconds.